Time,TemperatureF,DewpointF,PressureIn,WindDirection,WindDirectionDegrees,WindSpeedMPH,WindSpeedGustMPH,Humidity,HourlyPrecipIn,Conditions,Clouds,dailyrainin,SoftwareType,DateUTC
2013-01-22 00:01:00,0.1,-11.8,30.32,North,0,2.2,4.0,42,0.00,,CLR,0.00,VWS V14.01,2013-01-22 06:01:00,
2013-01-22 00:03:00,0.1,-11.8,30.32,North,0,2.2,4.0,42,0.00,,CLR,0.00,VWS V14.01,2013-01-22 06:03:00,
2013-01-22 00:05:00,0.1,-11.8,30.32,North,0,2.2,4.0,42,0.00,,CLR,0.00,VWS V14.01,2013-01-22 06:05:00,
2013-01-22 00:08:00,0.1,-11.8,30.32,North,0,2.2,4.0,42,0.00,,CLR,0.00,VWS V14.01,2013-01-22 06:08:00,
2013-01-22 00:10:00,-0.2,-11.8,30.31,North,0,4.8,4.8,42,0.00,,CLR,0.00,VWS V14.01,2013-01-22 06:10:00,
2013-01-22 00:11:00,-0.2,-11.8,30.32,SSW,202,0.0,4.8,42,0.00,,CLR,0.00,VWS V14.01,2013-01-22 06:11:00,
2013-01-22 00:12:00,-0.2,-11.8,30.32,SSW,202,4.8,4.8,42,0.00,,CLR,0.00,VWS V14.01,2013-01-22 06:12:00,
2013-01-22 00:14:00,-0.2,-11.8,30.32,SSW,202,4.4,5.2,42,0.00,,CLR,0.00,VWS V14.01,2013-01-22 06:14:00,
2013-01-22 00:15:00,-0.2,-11.8,30.32,SSW,202,1.6,4.4,42,0.00,,CLR,0.00,VWS V14.01,2013-01-22 06:15:00,
2013-01-22 00:20:00,-0.2,-11.8,30.32,North,0,3.0,5.2,42,0.00,,CLR,0.00,VWS V14.01,2013-01-22 06:20:00,
2013-01-22 00:22:00,-0.2,-11.8,30.32,SSW,202,8.0,8.0,42,0.00,,CLR,0.00,VWS V14.01,2013-01-22 06:22:00,
2013-01-22 00:26:00,-0.2,-11.8,30.32,SSW,202,3.4,3.4,42,0.00,,CLR,0.00,VWS V14.01,2013-01-22 06:26:00,
2013-01-22 00:27:00,-0.2,-11.8,30.32,SSW,202,0.0,3.4,42,0.00,,CLR,0.00,VWS V14.01,2013-01-22 06:27:00,
2013-01-22 00:28:00,-0.2,-11.8,30.32,SW,225,10.6,10.6,42,0.00,,CLR,0.00,VWS V14.01,2013-01-22 06:28:00,
2013-01-22 00:34:00,-0.2,-11.8,30.32,NNW,338,7.0,7.0,43,0.00,,CLR,0.00,VWS V14.01,2013-01-22 06:34:00,
2013-01-22 00:35:00,-0.2,-11.8,30.32,SSW,202,8.4,8.4,43,0.00,,CLR,0.00,VWS V14.01,2013-01-22 06:35:00,
2013-01-22 00:36:00,-0.2,-11.8,30.32,North,0,8.0,8.4,43,0.00,,CLR,0.00,VWS V14.01,2013-01-22 06:36:00,
2013-01-22 00:37:00,-0.2,-11.8,30.32,North,0,0.0,0.0,42,0.00,,CLR,0.00,VWS V14.01,2013-01-22 06:37:00,
2013-01-22 00:40:00,-0.2,-11.8,30.32,SSW,202,4.8,4.8,43,0.00,,CLR,0.00,VWS V14.01,2013-01-22 06:40:00,
2013-01-22 00:41:00,-0.2,-11.8,30.31,NNE,22,4.8,4.8,43,0.00,,CLR,0.00,VWS V14.01,2013-01-22 06:41:00,
2013-01-22 00:43:00,-0.2,-11.8,30.31,SSW,202,0.0,0.0,43,0.00,,CLR,0.00,VWS V14.01,2013-01-22 06:43:00,
2013-01-22 00:46:00,-0.2,-11.8,30.32,SSW,202,6.6,7.6,43,0.00,,CLR,0.00,VWS V14.01,2013-01-22 06:46:00,
2013-01-22 00:47:00,-0.2,-11.8,30.32,North,0,0.0,0.0,43,0.00,,CLR,0.00,VWS V14.01,2013-01-22 06:47:00,
2013-01-22 00:49:00,-0.2,-11.8,30.32,North,0,2.2,2.2,43,0.00,,CLR,0.00,VWS V14.01,2013-01-22 06:49:00,
2013-01-22 00:50:00,-0.2,-11.8,30.32,SSW,202,6.2,6.6,43,0.00,,CLR,0.00,VWS V14.01,2013-01-22 06:50:00,
2013-01-22 00:52:00,-0.2,-11.8,30.32,SSW,202,4.4,6.2,43,0.00,,CLR,0.00,VWS V14.01,2013-01-22 06:52:00,
2013-01-22 00:56:00,-0.2,-11.8,30.32,North,0,6.2,6.2,43,0.00,,CLR,0.00,VWS V14.01,2013-01-22 06:56:00,
2013-01-22 00:57:00,-0.2,-11.8,30.32,SSW,202,6.2,6.2,43,0.00,,CLR,0.00,VWS V14.01,2013-01-22 06:57:00,
2013-01-22 00:59:00,-0.2,-11.8,30.32,North,0,2.2,2.2,43,0.00,,CLR,0.00,VWS V14.01,2013-01-22 06:59:00,
2013-01-22 01:01:00,-0.2,-11.8,30.31,SSW,202,2.6,2.6,43,0.00,,CLR,0.00,VWS V14.01,2013-01-22 07:01:00,
2013-01-22 01:02:00,-0.2,-11.8,30.32,North,0,4.8,4.8,43,0.00,,CLR,0.00,VWS V14.01,2013-01-22 07:02:00,
2013-01-22 01:05:00,-0.2,-11.8,30.32,North,0,0.0,0.0,43,0.00,,CLR,0.00,VWS V14.01,2013-01-22 07:05:00,
2013-01-22 01:06:00,-0.2,-11.8,30.31,NNW,338,3.0,4.8,43,0.00,,CLR,0.00,VWS V14.01,2013-01-22 07:06:00,
2013-01-22 01:08:00,-0.2,-11.8,30.32,NNW,338,8.4,8.4,43,0.00,,CLR,0.00,VWS V14.01,2013-01-22 07:08:00,
2013-01-22 01:12:00,-0.4,-11.8,30.32,NE,45,2.6,10.2,43,0.00,,CLR,0.00,VWS V14.01,2013-01-22 07:12:00,
2013-01-22 01:13:00,-0.5,-11.8,30.32,North,0,7.6,7.6,43,0.00,,CLR,0.00,VWS V14.01,2013-01-22 07:13:00,
2013-01-22 01:16:00,-0.4,-11.8,30.32,SSW,202,4.0,4.0,43,0.00,,CLR,0.00,VWS V14.01,2013-01-22 07:16:00,
2013-01-22 01:18:00,-0.4,-11.8,30.32,SSW,202,3.4,4.0,43,0.00,,CLR,0.00,VWS V14.01,2013-01-22 07:18:00,
2013-01-22 01:20:00,-0.5,-11.8,30.32,North,0,3.4,6.2,43,0.00,,CLR,0.00,VWS V14.01,2013-01-22 07:20:00,
2013-01-22 01:21:00,-0.4,-11.8,30.32,North,0,0.0,3.4,43,0.00,,CLR,0.00,VWS V14.01,2013-01-22 07:21:00,
2013-01-22 01:23:00,-0.4,-11.8,30.32,North,0,0.0,5.8,43,0.00,,CLR,0.00,VWS V14.01,2013-01-22 07:23:00,
2013-01-22 01:26:00,-0.4,-11.8,30.32,North,0,3.0,10.2,43,0.00,,CLR,0.00,VWS V14.01,2013-01-22 07:26:00,
2013-01-22 01:29:00,-0.5,-11.8,30.32,North,0,4.4,4.8,43,0.00,,CLR,0.00,VWS V14.01,2013-01-22 07:29:00,
2013-01-22 01:32:00,-0.5,-11.8,30.32,SSW,202,4.8,5.8,43,0.00,,CLR,0.00,VWS V14.01,2013-01-22 07:32:00,
2013-01-22 01:35:00,-0.5,-11.8,30.33,North,0,0.0,0.0,43,0.00,,CLR,0.00,VWS V14.01,2013-01-22 07:35:00,
2013-01-22 01:36:00,-0.5,-11.8,30.32,North,0,2.6,2.6,43,0.00,,CLR,0.00,VWS V14.01,2013-01-22 07:36:00,
2013-01-22 01:37:00,-0.5,-11.8,30.32,North,0,2.2,2.6,43,0.00,,CLR,0.00,VWS V14.01,2013-01-22 07:37:00,
2013-01-22 01:38:00,-0.5,-11.8,30.32,SSW,202,1.6,1.6,43,0.00,,CLR,0.00,VWS V14.01,2013-01-22 07:38:00,
2013-01-22 01:43:00,-0.5,-11.8,30.33,North,0,0.0,1.6,43,0.00,,CLR,0.00,VWS V14.01,2013-01-22 07:43:00,
2013-01-22 01:44:00,-0.5,-11.8,30.32,North,0,1.6,1.6,43,0.00,,CLR,0.00,VWS V14.01,2013-01-22 07:44:00,
2013-01-22 01:45:00,-0.5,-11.8,30.32,North,0,0.0,1.6,43,0.00,,CLR,0.00,VWS V14.01,2013-01-22 07:45:00,
2013-01-22 01:48:00,-0.7,-11.8,30.33,North,0,3.4,3.4,43,0.00,,CLR,0.00,VWS V14.01,2013-01-22 07:48:00,
2013-01-22 01:49:00,-0.5,-11.8,30.33,NNW,338,4.8,4.8,43,0.00,,CLR,0.00,VWS V14.01,2013-01-22 07:49:00,
2013-01-22 01:50:00,-0.5,-11.8,30.33,North,0,2.6,4.8,44,0.00,,CLR,0.00,VWS V14.01,2013-01-22 07:50:00,
2013-01-22 01:53:00,-0.7,-11.8,30.33,NNW,338,2.6,2.6,44,0.00,,CLR,0.00,VWS V14.01,2013-01-22 07:53:00,
2013-01-22 01:54:00,-0.5,-11.8,30.33,NNE,22,8.8,8.8,44,0.00,,CLR,0.00,VWS V14.01,2013-01-22 07:54:00,
2013-01-22 02:00:00,-0.5,-11.8,30.33,SSW,202,4.4,4.4,44,0.00,,CLR,0.00,VWS V14.01,2013-01-22 08:00:00,
2013-01-22 02:02:00,-0.5,-11.8,30.34,NNW,338,4.0,7.0,44,0.00,,CLR,0.00,VWS V14.01,2013-01-22 08:02:00,
2013-01-22 02:05:00,-0.7,-11.8,30.33,North,0,2.6,2.6,44,0.00,,CLR,0.00,VWS V14.01,2013-01-22 08:05:00,
2013-01-22 02:08:00,-0.7,-11.8,30.34,North,0,0.0,3.0,44,0.00,,CLR,0.00,VWS V14.01,2013-01-22 08:08:00,
2013-01-22 02:09:00,-0.7,-11.8,30.34,North,0,0.0,0.0,44,0.00,,CLR,0.00,VWS V14.01,2013-01-22 08:09:00,
2013-01-22 02:10:00,-0.7,-11.8,30.34,SSW,202,7.0,7.6,44,0.00,,CLR,0.00,VWS V14.01,2013-01-22 08:10:00,
2013-01-22 02:12:00,-0.7,-11.8,30.34,NNE,22,0.0,7.0,44,0.00,,CLR,0.00,VWS V14.01,2013-01-22 08:12:00,
2013-01-22 02:15:00,-0.7,-11.8,30.34,NE,45,8.8,8.8,44,0.00,,CLR,0.00,VWS V14.01,2013-01-22 08:15:00,
2013-01-22 02:16:00,-0.7,-11.8,30.34,SSW,202,2.6,8.8,44,0.00,,CLR,0.00,VWS V14.01,2013-01-22 08:16:00,
2013-01-22 02:18:00,-0.7,-11.8,30.34,NNW,338,14.2,14.2,44,0.00,,CLR,0.00,VWS V14.01,2013-01-22 08:18:00,
2013-01-22 02:21:00,-0.7,-11.8,30.34,NNW,338,5.2,5.2,44,0.00,,CLR,0.00,VWS V14.01,2013-01-22 08:21:00,
2013-01-22 02:24:00,-0.5,-11.8,30.34,NNE,22,0.0,0.0,44,0.00,,CLR,0.00,VWS V14.01,2013-01-22 08:24:00,
2013-01-22 02:26:00,-0.5,-11.8,30.34,NNW,338,1.6,2.2,44,0.00,,CLR,0.00,VWS V14.01,2013-01-22 08:26:00,
2013-01-22 02:29:00,-0.7,-11.8,30.33,SSW,202,9.8,9.8,44,0.00,,CLR,0.00,VWS V14.01,2013-01-22 08:29:00,
2013-01-22 02:32:00,-0.7,-11.8,30.33,North,0,3.0,7.0,44,0.00,,CLR,0.00,VWS V14.01,2013-01-22 08:32:00,
2013-01-22 02:34:00,-0.7,-11.8,30.33,North,0,6.6,6.6,44,0.00,,CLR,0.00,VWS V14.01,2013-01-22 08:34:00,
2013-01-22 02:37:00,-0.7,-11.8,30.34,NNW,338,1.2,7.6,44,0.00,,CLR,0.00,VWS V14.01,2013-01-22 08:37:00,
2013-01-22 02:40:00,-0.7,-11.8,30.34,North,0,6.2,6.2,44,0.00,,CLR,0.00,VWS V14.01,2013-01-22 08:40:00,
2013-01-22 02:42:00,-0.7,-11.8,30.34,NNE,22,8.4,8.4,44,0.00,,CLR,0.00,VWS V14.01,2013-01-22 08:42:00,
2013-01-22 02:45:00,-0.7,-11.8,30.34,NNW,338,14.2,14.2,44,0.00,,CLR,0.00,VWS V14.01,2013-01-22 08:45:00,
2013-01-22 02:47:00,-0.9,-11.8,30.34,NNW,338,8.4,10.2,44,0.00,,CLR,0.00,VWS V14.01,2013-01-22 08:47:00,
2013-01-22 02:48:00,-0.9,-11.8,30.34,North,0,7.6,10.2,44,0.00,,CLR,0.00,VWS V14.01,2013-01-22 08:48:00,
2013-01-22 02:50:00,-1.1,-11.8,30.34,NNE,22,5.8,5.8,43,0.00,,CLR,0.00,VWS V14.01,2013-01-22 08:50:00,
2013-01-22 02:53:00,-1.1,-11.8,30.34,North,0,8.4,9.8,43,0.00,,CLR,0.00,VWS V14.01,2013-01-22 08:53:00,
2013-01-22 02:55:00,-1.1,-11.8,30.34,NNW,338,7.6,7.6,42,0.00,,CLR,0.00,VWS V14.01,2013-01-22 08:55:00,
2013-01-22 02:58:00,-1.3,-11.8,30.34,NNW,338,11.0,11.0,42,0.00,,CLR,0.00,VWS V14.01,2013-01-22 08:58:00,
2013-01-22 03:01:00,-1.3,-11.8,30.34,NE,45,8.8,10.2,41,0.00,,CLR,0.00,VWS V14.01,2013-01-22 09:01:00,
2013-01-22 03:04:00,-1.4,-11.8,30.34,NNW,338,3.4,17.0,40,0.00,,CLR,0.00,VWS V14.01,2013-01-22 09:04:00,
2013-01-22 03:06:00,-1.4,-11.8,30.34,NNW,338,14.2,14.2,40,0.00,,CLR,0.00,VWS V14.01,2013-01-22 09:06:00,
2013-01-22 03:07:00,-1.6,-11.8,30.34,NNE,22,2.6,14.2,40,0.00,,CLR,0.00,VWS V14.01,2013-01-22 09:07:00,
2013-01-22 03:08:00,-1.4,-11.8,30.34,NE,45,0.0,0.0,40,0.00,,CLR,0.00,VWS V14.01,2013-01-22 09:08:00,
2013-01-22 03:10:00,-1.4,-11.8,30.34,NE,45,1.6,2.2,40,0.00,,CLR,0.00,VWS V14.01,2013-01-22 09:10:00,
2013-01-22 03:13:00,-1.8,-11.8,30.34,NE,45,8.4,8.4,39,0.00,,CLR,0.00,VWS V14.01,2013-01-22 09:13:00,
2013-01-22 03:14:00,-1.6,-11.8,30.35,NE,45,6.2,6.2,38,0.00,,CLR,0.00,VWS V14.01,2013-01-22 09:14:00,
2013-01-22 03:16:00,-1.8,-11.8,30.34,NNW,338,5.2,6.2,38,0.00,,CLR,0.00,VWS V14.01,2013-01-22 09:16:00,
2013-01-22 03:17:00,-1.8,-11.8,30.34,NNW,338,5.2,5.2,38,0.00,,CLR,0.00,VWS V14.01,2013-01-22 09:17:00,
2013-01-22 03:21:00,-1.8,-11.8,30.34,NNW,338,7.6,7.6,38,0.00,,CLR,0.00,VWS V14.01,2013-01-22 09:21:00,
2013-01-22 03:24:00,-1.8,-11.8,30.35,NNW,338,4.8,4.8,38,0.00,,CLR,0.00,VWS V14.01,2013-01-22 09:24:00,
2013-01-22 03:26:00,-2.0,-11.8,30.35,NE,45,7.0,7.6,37,0.00,,CLR,0.00,VWS V14.01,2013-01-22 09:26:00,
2013-01-22 03:27:00,-2.0,-11.8,30.35,NE,45,7.0,7.0,37,0.00,,CLR,0.00,VWS V14.01,2013-01-22 09:27:00,
2013-01-22 03:29:00,-2.0,-11.8,30.35,NNE,22,2.6,2.6,36,0.00,,CLR,0.00,VWS V14.01,2013-01-22 09:29:00,
2013-01-22 03:32:00,-2.0,-11.8,30.35,SW,225,0.8,0.8,36,0.00,,CLR,0.00,VWS V14.01,2013-01-22 09:32:00,
2013-01-22 03:34:00,-2.0,-11.8,30.36,NNE,22,9.8,13.4,36,0.00,,CLR,0.00,VWS V14.01,2013-01-22 09:34:00,
2013-01-22 03:36:00,-2.0,-11.8,30.35,NNW,338,9.2,9.2,36,0.00,,CLR,0.00,VWS V14.01,2013-01-22 09:36:00,
2013-01-22 03:38:00,-2.0,-11.8,30.36,SSW,202,4.0,4.8,35,0.00,,CLR,0.00,VWS V14.01,2013-01-22 09:38:00,
2013-01-22 03:39:00,-2.0,-11.8,30.36,SSW,202,4.0,4.0,35,0.00,,CLR,0.00,VWS V14.01,2013-01-22 09:39:00,
2013-01-22 03:43:00,-2.2,-11.8,30.35,NNW,338,10.6,10.6,34,0.00,,CLR,0.00,VWS V14.01,2013-01-22 09:43:00,
2013-01-22 03:44:00,-2.2,-11.8,30.35,North,0,4.8,10.6,35,0.00,,CLR,0.00,VWS V14.01,2013-01-22 09:44:00,
2013-01-22 03:47:00,-2.2,-11.8,30.35,NNW,338,6.2,6.2,35,0.00,,CLR,0.00,VWS V14.01,2013-01-22 09:47:00,
2013-01-22 03:50:00,-2.3,-11.8,30.35,NE,45,4.8,4.8,34,0.00,,CLR,0.00,VWS V14.01,2013-01-22 09:50:00,
2013-01-22 03:52:00,-2.3,-11.8,30.35,NNW,338,0.0,2.6,34,0.00,,CLR,0.00,VWS V14.01,2013-01-22 09:52:00,
2013-01-22 03:55:00,-2.3,-11.8,30.35,NNW,338,5.2,5.8,34,0.00,,CLR,0.00,VWS V14.01,2013-01-22 09:55:00,
2013-01-22 03:56:00,-2.3,-11.8,30.35,NNW,338,4.8,4.8,32,0.00,,CLR,0.00,VWS V14.01,2013-01-22 09:56:00,
2013-01-22 03:58:00,-2.3,-11.8,30.35,NE,45,1.2,1.2,33,0.00,,CLR,0.00,VWS V14.01,2013-01-22 09:58:00,
2013-01-22 03:59:00,-2.3,-11.8,30.35,NNE,22,0.0,1.2,33,0.00,,CLR,0.00,VWS V14.01,2013-01-22 09:59:00,
2013-01-22 04:01:00,-2.3,-11.8,30.35,North,0,0.0,1.6,32,0.00,,CLR,0.00,VWS V14.01,2013-01-22 10:01:00,
2013-01-22 04:04:00,-2.5,-11.8,30.35,NNW,338,5.8,5.8,32,0.00,,CLR,0.00,VWS V14.01,2013-01-22 10:04:00,
2013-01-22 04:06:00,-2.5,-11.8,30.35,NNW,338,0.0,0.0,32,0.00,,CLR,0.00,VWS V14.01,2013-01-22 10:06:00,
2013-01-22 04:09:00,-2.3,-11.8,30.35,NE,45,6.6,6.6,32,0.00,,CLR,0.00,VWS V14.01,2013-01-22 10:09:00,
2013-01-22 04:10:00,-2.5,-11.8,30.35,SSW,202,4.8,6.6,33,0.00,,CLR,0.00,VWS V14.01,2013-01-22 10:10:00,
2013-01-22 04:13:00,-2.5,-11.8,30.35,NNW,338,6.6,6.6,32,0.00,,CLR,0.00,VWS V14.01,2013-01-22 10:13:00,
2013-01-22 04:14:00,-2.5,-11.8,30.35,North,0,0.0,0.0,33,0.00,,CLR,0.00,VWS V14.01,2013-01-22 10:14:00,
2013-01-22 04:15:00,-2.5,-11.8,30.35,NNW,338,0.0,0.0,30,0.00,,CLR,0.00,VWS V14.01,2013-01-22 10:15:00,
2013-01-22 04:18:00,-2.5,-11.8,30.35,NE,45,4.8,4.8,31,0.00,,CLR,0.00,VWS V14.01,2013-01-22 10:18:00,
2013-01-22 04:19:00,-2.7,-11.8,30.35,NNW,338,0.0,4.8,31,0.00,,CLR,0.00,VWS V14.01,2013-01-22 10:19:00,
2013-01-22 04:20:00,-2.5,-11.8,30.35,NE,45,10.2,10.2,31,0.00,,CLR,0.00,VWS V14.01,2013-01-22 10:20:00,
2013-01-22 04:24:00,-2.7,-11.8,30.35,NNW,338,3.4,3.4,31,0.00,,CLR,0.00,VWS V14.01,2013-01-22 10:24:00,
2013-01-22 04:26:00,-2.7,-11.8,30.36,North,0,3.4,4.8,31,0.00,,CLR,0.00,VWS V14.01,2013-01-22 10:26:00,
2013-01-22 04:29:00,-2.7,-11.8,30.36,NNW,338,1.6,2.2,31,0.00,,CLR,0.00,VWS V14.01,2013-01-22 10:29:00,
2013-01-22 04:30:00,-2.7,-11.8,30.35,North,0,0.0,2.2,31,0.00,,CLR,0.00,VWS V14.01,2013-01-22 10:30:00,
2013-01-22 04:32:00,-2.7,-11.8,30.36,NE,45,3.4,3.4,31,0.00,,CLR,0.00,VWS V14.01,2013-01-22 10:32:00,
2013-01-22 04:33:00,-2.7,-11.8,30.35,NNW,338,0.0,3.4,30,0.00,,CLR,0.00,VWS V14.01,2013-01-22 10:33:00,
2013-01-22 04:36:00,-2.7,-11.8,30.35,NNW,338,4.4,4.4,29,0.00,,CLR,0.00,VWS V14.01,2013-01-22 10:36:00,
2013-01-22 04:37:00,-2.7,-11.8,30.36,North,0,0.0,4.4,31,0.00,,CLR,0.00,VWS V14.01,2013-01-22 10:37:00,
2013-01-22 04:38:00,-2.7,-11.8,30.36,North,0,0.0,4.4,29,0.00,,CLR,0.00,VWS V14.01,2013-01-22 10:38:00,
2013-01-22 04:42:00,-2.7,-11.8,30.35,North,0,0.0,0.0,31,0.00,,CLR,0.00,VWS V14.01,2013-01-22 10:42:00,
2013-01-22 04:44:00,-2.7,-11.8,30.36,SSW,202,0.0,0.0,30,0.00,,CLR,0.00,VWS V14.01,2013-01-22 10:44:00,
2013-01-22 04:45:00,-2.7,-11.8,30.36,SW,225,0.0,0.0,31,0.00,,CLR,0.00,VWS V14.01,2013-01-22 10:45:00,
2013-01-22 04:48:00,-2.7,-11.8,30.36,SSW,202,0.0,0.0,31,0.00,,CLR,0.00,VWS V14.01,2013-01-22 10:48:00,
2013-01-22 04:50:00,-2.9,-11.8,30.35,SSW,202,0.0,0.0,31,0.00,,CLR,0.00,VWS V14.01,2013-01-22 10:50:00,
2013-01-22 04:54:00,-2.9,-11.8,30.36,SW,225,0.0,0.0,31,0.00,,CLR,0.00,VWS V14.01,2013-01-22 10:54:00,
2013-01-22 04:56:00,-3.1,-11.8,30.36,SSW,202,0.0,0.0,31,0.00,,CLR,0.00,VWS V14.01,2013-01-22 10:56:00,
2013-01-22 05:00:00,-3.1,-11.8,30.35,SSW,202,0.0,0.0,31,0.00,,CLR,0.00,VWS V14.01,2013-01-22 11:00:00,
2013-01-22 05:02:00,-3.1,-11.8,30.35,SSW,202,0.0,0.0,31,0.00,,CLR,0.00,VWS V14.01,2013-01-22 11:02:00,
2013-01-22 05:06:00,-3.2,-11.8,30.35,SSW,202,0.0,0.0,32,0.00,,CLR,0.00,VWS V14.01,2013-01-22 11:06:00,
2013-01-22 05:07:00,-3.2,-11.8,30.35,SSW,202,0.0,0.0,32,0.00,,CLR,0.00,VWS V14.01,2013-01-22 11:07:00,
2013-01-22 05:08:00,-3.2,-11.8,30.35,SSW,202,0.0,0.0,31,0.00,,CLR,0.00,VWS V14.01,2013-01-22 11:08:00,
2013-01-22 05:12:00,-3.2,-11.8,30.36,SSW,202,0.0,0.0,33,0.00,,CLR,0.00,VWS V14.01,2013-01-22 11:12:00,
2013-01-22 05:14:00,-3.2,-11.8,30.35,SSW,202,0.0,0.0,32,0.00,,CLR,0.00,VWS V14.01,2013-01-22 11:14:00,
2013-01-22 05:18:00,-3.2,-11.8,30.35,SSW,202,0.0,0.0,31,0.00,,CLR,0.00,VWS V14.01,2013-01-22 11:18:00,
2013-01-22 05:20:00,-3.4,-11.8,30.35,SSW,202,0.0,0.0,32,0.00,,CLR,0.00,VWS V14.01,2013-01-22 11:20:00,
2013-01-22 05:22:00,-3.2,-11.8,30.36,SSW,202,0.0,0.0,33,0.00,,CLR,0.00,VWS V14.01,2013-01-22 11:22:00,
2013-01-22 05:23:00,-3.6,-11.8,30.36,SSW,202,0.0,0.0,33,0.00,,CLR,0.00,VWS V14.01,2013-01-22 11:23:00,
2013-01-22 05:25:00,-3.4,-11.8,30.36,SSW,202,0.0,0.0,33,0.00,,CLR,0.00,VWS V14.01,2013-01-22 11:25:00,
2013-01-22 05:27:00,-3.4,-11.8,30.36,SSW,202,0.0,0.0,34,0.00,,CLR,0.00,VWS V14.01,2013-01-22 11:27:00,
2013-01-22 05:30:00,-3.4,-11.8,30.36,SSW,202,0.0,0.0,34,0.00,,CLR,0.00,VWS V14.01,2013-01-22 11:30:00,
2013-01-22 05:32:00,-3.6,-11.8,30.36,SSW,202,0.0,0.0,35,0.00,,CLR,0.00,VWS V14.01,2013-01-22 11:32:00,
2013-01-22 05:35:00,-3.4,-11.8,30.36,SSW,202,0.0,0.0,34,0.00,,CLR,0.00,VWS V14.01,2013-01-22 11:35:00,
2013-01-22 05:38:00,-3.4,-11.8,30.36,SSW,202,0.0,0.0,35,0.00,,CLR,0.00,VWS V14.01,2013-01-22 11:38:00,
2013-01-22 05:40:00,-3.4,-11.8,30.36,SSW,202,0.0,0.0,35,0.00,,CLR,0.00,VWS V14.01,2013-01-22 11:40:00,
2013-01-22 05:42:00,-3.6,-11.8,30.36,SSW,202,0.0,0.0,35,0.00,,CLR,0.00,VWS V14.01,2013-01-22 11:42:00,
2013-01-22 05:45:00,-3.4,-11.8,30.36,SSW,202,0.0,0.0,35,0.00,,CLR,0.00,VWS V14.01,2013-01-22 11:45:00,
2013-01-22 05:48:00,-3.2,-11.8,30.36,SSW,202,0.0,0.0,35,0.00,,CLR,0.00,VWS V14.01,2013-01-22 11:48:00,
2013-01-22 05:50:00,-3.4,-11.8,30.36,SSW,202,0.0,0.0,36,0.00,,CLR,0.00,VWS V14.01,2013-01-22 11:50:00,
2013-01-22 05:54:00,-3.4,-11.8,30.36,SSW,202,0.0,0.0,36,0.00,,CLR,0.00,VWS V14.01,2013-01-22 11:54:00,
2013-01-22 05:56:00,-3.4,-11.8,30.36,SSW,202,0.0,0.0,36,0.00,,CLR,0.00,VWS V14.01,2013-01-22 11:56:00,
2013-01-22 05:57:00,-3.4,-11.8,30.36,SSW,202,0.0,0.0,36,0.00,,CLR,0.00,VWS V14.01,2013-01-22 11:57:00,
2013-01-22 06:00:00,-3.6,-11.8,30.36,SSW,202,0.0,0.0,36,0.00,,CLR,0.00,VWS V14.01,2013-01-22 12:00:00,
2013-01-22 06:01:00,-3.6,-11.8,30.36,SSW,202,0.0,0.0,36,0.00,,CLR,0.00,VWS V14.01,2013-01-22 12:01:00,
2013-01-22 06:02:00,-3.6,-11.8,30.36,SSW,202,0.0,0.0,36,0.00,,CLR,0.00,VWS V14.01,2013-01-22 12:02:00,
2013-01-22 06:06:00,-3.6,-11.8,30.37,SSW,202,0.0,0.0,36,0.00,,CLR,0.00,VWS V14.01,2013-01-22 12:06:00,
2013-01-22 06:07:00,-3.6,-11.8,30.37,SSW,202,0.0,0.0,36,0.00,,CLR,0.00,VWS V14.01,2013-01-22 12:07:00,
2013-01-22 06:11:00,-3.6,-11.8,30.37,SSW,202,0.0,0.0,36,0.00,,CLR,0.00,VWS V14.01,2013-01-22 12:11:00,
2013-01-22 06:12:00,-3.6,-11.8,30.37,SSW,202,0.0,0.0,37,0.00,,CLR,0.00,VWS V14.01,2013-01-22 12:12:00,
2013-01-22 06:14:00,-3.6,-11.8,30.37,SSW,202,0.0,0.0,36,0.00,,CLR,0.00,VWS V14.01,2013-01-22 12:14:00,
2013-01-22 06:17:00,-3.6,-11.8,30.37,SSW,202,0.0,0.0,37,0.00,,CLR,0.00,VWS V14.01,2013-01-22 12:17:00,
2013-01-22 06:20:00,-3.6,-11.8,30.37,SSW,202,0.0,0.0,37,0.00,,CLR,0.00,VWS V14.01,2013-01-22 12:20:00,
2013-01-22 06:21:00,-3.6,-11.8,30.37,SSW,202,0.0,0.0,37,0.00,,CLR,0.00,VWS V14.01,2013-01-22 12:21:00,
2013-01-22 06:24:00,-3.6,-11.8,30.37,SSW,202,0.0,0.0,38,0.00,,CLR,0.00,VWS V14.01,2013-01-22 12:24:00,
2013-01-22 06:26:00,-3.6,-11.8,30.37,SSW,202,0.0,0.0,37,0.00,,CLR,0.00,VWS V14.01,2013-01-22 12:26:00,
2013-01-22 06:29:00,-3.6,-11.8,30.37,SSW,202,0.0,0.0,37,0.00,,CLR,0.00,VWS V14.01,2013-01-22 12:29:00,
2013-01-22 06:32:00,-3.4,-11.8,30.37,SSW,202,0.0,0.0,38,0.00,,CLR,0.00,VWS V14.01,2013-01-22 12:32:00,
2013-01-22 06:33:00,-3.4,-11.8,30.37,SSW,202,0.0,0.0,37,0.00,,CLR,0.00,VWS V14.01,2013-01-22 12:33:00,
2013-01-22 06:34:00,-3.4,-11.8,30.37,SSW,202,0.0,0.0,38,0.00,,CLR,0.00,VWS V14.01,2013-01-22 12:34:00,
2013-01-22 06:38:00,-3.4,-11.8,30.37,SSW,202,0.0,0.0,38,0.00,,CLR,0.00,VWS V14.01,2013-01-22 12:38:00,
2013-01-22 06:39:00,-3.4,-11.8,30.37,SSW,202,0.0,0.0,38,0.00,,CLR,0.00,VWS V14.01,2013-01-22 12:39:00,
2013-01-22 06:40:00,-3.6,-11.8,30.37,SSW,202,0.0,0.0,38,0.00,,CLR,0.00,VWS V14.01,2013-01-22 12:40:00,
2013-01-22 06:44:00,-3.2,-11.8,30.37,SSW,202,0.0,0.0,39,0.00,,CLR,0.00,VWS V14.01,2013-01-22 12:44:00,
2013-01-22 06:46:00,-3.4,-11.8,30.37,SSW,202,0.0,0.0,38,0.00,,CLR,0.00,VWS V14.01,2013-01-22 12:46:00,
2013-01-22 06:48:00,-3.2,-11.8,30.37,SSW,202,0.0,0.0,39,0.00,,CLR,0.00,VWS V14.01,2013-01-22 12:48:00,
2013-01-22 06:49:00,-3.2,-11.8,30.37,SSW,202,0.0,0.0,39,0.00,,CLR,0.00,VWS V14.01,2013-01-22 12:49:00,
2013-01-22 06:52:00,-3.2,-11.8,30.37,SSW,202,0.0,0.0,39,0.00,,CLR,0.00,VWS V14.01,2013-01-22 12:52:00,
2013-01-22 06:54:00,-3.2,-11.8,30.37,SSW,202,0.0,0.0,39,0.00,,CLR,0.00,VWS V14.01,2013-01-22 12:54:00,
2013-01-22 06:57:00,-3.2,-11.8,30.37,SSW,202,0.0,0.0,39,0.00,,CLR,0.00,VWS V14.01,2013-01-22 12:57:00,
2013-01-22 06:58:00,-3.2,-11.8,30.37,North,0,1.6,1.6,39,0.00,,CLR,0.00,VWS V14.01,2013-01-22 12:58:00,
2013-01-22 06:59:00,-3.2,-11.8,30.37,SSW,202,0.0,0.0,39,0.00,,CLR,0.00,VWS V14.01,2013-01-22 12:59:00,
2013-01-22 07:00:00,-3.1,-11.8,30.38,SSW,202,0.0,0.0,39,0.00,,CLR,0.00,VWS V14.01,2013-01-22 13:00:00,
2013-01-22 07:02:00,-3.2,-11.8,30.37,SSW,202,0.0,0.0,40,0.00,,CLR,0.00,VWS V14.01,2013-01-22 13:02:00,
2013-01-22 07:04:00,-3.2,-11.8,30.37,SSW,202,0.0,0.0,39,0.00,,CLR,0.00,VWS V14.01,2013-01-22 13:04:00,
2013-01-22 07:05:00,-3.2,-11.8,30.37,SSW,202,0.0,0.0,40,0.00,,CLR,0.00,VWS V14.01,2013-01-22 13:05:00,
2013-01-22 07:07:00,-3.1,-11.8,30.37,SSW,202,0.8,0.8,40,0.00,,CLR,0.00,VWS V14.01,2013-01-22 13:07:00,
2013-01-22 07:08:00,-3.1,-11.8,30.37,SSW,202,0.0,0.8,40,0.00,,CLR,0.00,VWS V14.01,2013-01-22 13:08:00,
2013-01-22 07:10:00,-3.1,-11.8,30.37,SW,225,4.8,4.8,40,0.00,,CLR,0.00,VWS V14.01,2013-01-22 13:10:00,
2013-01-22 07:14:00,-3.1,-11.8,30.37,SSW,202,0.0,6.2,40,0.00,,CLR,0.00,VWS V14.01,2013-01-22 13:14:00,
2013-01-22 07:16:00,-3.1,-11.8,30.37,SSW,202,0.0,0.0,40,0.00,,CLR,0.00,VWS V14.01,2013-01-22 13:16:00,
2013-01-22 07:17:00,-3.1,-11.8,30.37,SSW,202,0.0,0.0,40,0.00,,CLR,0.00,VWS V14.01,2013-01-22 13:17:00,
2013-01-22 07:18:00,-3.1,-11.8,30.37,SSW,202,1.6,4.4,40,0.00,,CLR,0.00,VWS V14.01,2013-01-22 13:18:00,
2013-01-22 07:22:00,-3.1,-11.8,30.37,SSW,202,2.6,4.4,40,0.00,,CLR,0.00,VWS V14.01,2013-01-22 13:22:00,
2013-01-22 07:23:00,-3.1,-11.8,30.37,SSW,202,1.2,1.2,41,0.00,,CLR,0.00,VWS V14.01,2013-01-22 13:23:00,
2013-01-22 07:24:00,-3.1,-11.8,30.37,North,0,0.0,1.2,41,0.00,,CLR,0.00,VWS V14.01,2013-01-22 13:24:00,
2013-01-22 07:28:00,-3.1,-11.8,30.38,NNE,22,0.0,0.0,41,0.00,,CLR,0.00,VWS V14.01,2013-01-22 13:28:00,
2013-01-22 07:30:00,-2.9,-11.8,30.38,SSW,202,1.2,2.2,41,0.00,,CLR,0.00,VWS V14.01,2013-01-22 13:30:00,
2013-01-22 07:33:00,-2.7,-11.8,30.38,SSW,202,0.0,0.0,41,0.00,,CLR,0.00,VWS V14.01,2013-01-22 13:33:00,
2013-01-22 07:34:00,-2.9,-11.8,30.38,SSW,202,0.0,0.0,41,0.00,,CLR,0.00,VWS V14.01,2013-01-22 13:34:00,
2013-01-22 07:37:00,-2.7,-11.8,30.38,SSW,202,0.0,0.0,41,0.00,,CLR,0.00,VWS V14.01,2013-01-22 13:37:00,
2013-01-22 07:39:00,-2.7,-11.8,30.38,SSW,202,2.2,4.0,41,0.00,,CLR,0.00,VWS V14.01,2013-01-22 13:39:00,
2013-01-22 07:42:00,-2.7,-11.8,30.38,North,0,0.0,4.8,42,0.00,,CLR,0.00,VWS V14.01,2013-01-22 13:42:00,
2013-01-22 07:43:00,-2.7,-11.8,30.38,SSW,202,3.0,3.0,42,0.00,,CLR,0.00,VWS V14.01,2013-01-22 13:43:00,
2013-01-22 07:44:00,-2.5,-11.8,30.38,SW,225,4.0,4.0,42,0.00,,CLR,0.00,VWS V14.01,2013-01-22 13:44:00,
2013-01-22 07:47:00,-2.5,-11.8,30.38,SSW,202,0.0,0.8,42,0.00,,CLR,0.00,VWS V14.01,2013-01-22 13:47:00,
2013-01-22 07:50:00,-2.5,-11.8,30.38,SW,225,1.6,1.6,42,0.00,,CLR,0.00,VWS V14.01,2013-01-22 13:50:00,
2013-01-22 07:52:00,-2.3,-11.8,30.38,SW,225,5.2,5.2,42,0.00,,CLR,0.00,VWS V14.01,2013-01-22 13:52:00,
2013-01-22 07:54:00,-2.3,-11.8,30.38,SSW,202,1.6,1.6,42,0.00,,CLR,0.00,VWS V14.01,2013-01-22 13:54:00,
2013-01-22 07:56:00,-2.2,-11.8,30.38,SSW,202,0.0,3.0,42,0.00,,CLR,0.00,VWS V14.01,2013-01-22 13:56:00,
2013-01-22 07:58:00,-2.0,-11.8,30.38,NNW,338,2.6,2.6,42,0.00,,CLR,0.00,VWS V14.01,2013-01-22 13:58:00,
2013-01-22 07:59:00,-2.0,-11.8,30.38,SSW,202,4.4,4.4,42,0.00,,CLR,0.00,VWS V14.01,2013-01-22 13:59:00,
2013-01-22 08:03:00,-2.0,-11.8,30.38,North,0,3.0,3.0,43,0.00,,CLR,0.00,VWS V14.01,2013-01-22 14:03:00,
2013-01-22 08:04:00,-2.0,-11.8,30.38,SW,225,2.2,3.0,43,0.00,,CLR,0.00,VWS V14.01,2013-01-22 14:04:00,
2013-01-22 08:06:00,-1.8,-11.8,30.38,North,0,4.8,4.8,43,0.00,,CLR,0.00,VWS V14.01,2013-01-22 14:06:00,
2013-01-22 08:08:00,-1.8,-11.8,30.38,North,0,0.0,4.0,43,0.00,,CLR,0.00,VWS V14.01,2013-01-22 14:08:00,
2013-01-22 08:11:00,-1.4,-11.8,30.38,NNW,338,1.6,1.6,43,0.00,,CLR,0.00,VWS V14.01,2013-01-22 14:11:00,
2013-01-22 08:12:00,-1.4,-11.8,30.38,North,0,0.0,1.6,43,0.00,,CLR,0.00,VWS V14.01,2013-01-22 14:12:00,
2013-01-22 08:13:00,-1.3,-11.8,30.38,North,0,0.0,0.0,43,0.00,,CLR,0.00,VWS V14.01,2013-01-22 14:13:00,
2013-01-22 08:17:00,-1.3,-11.8,30.38,North,0,0.0,0.0,43,0.00,,CLR,0.00,VWS V14.01,2013-01-22 14:17:00,
2013-01-22 08:18:00,-1.3,-11.8,30.38,SW,225,3.4,3.4,43,0.00,,CLR,0.00,VWS V14.01,2013-01-22 14:18:00,
2013-01-22 08:20:00,-1.1,-11.8,30.39,North,0,0.0,2.2,43,0.00,,CLR,0.00,VWS V14.01,2013-01-22 14:20:00,
2013-01-22 08:22:00,-0.9,-11.8,30.39,NNW,338,0.0,2.2,43,0.00,,CLR,0.00,VWS V14.01,2013-01-22 14:22:00,
2013-01-22 08:24:00,-0.7,-11.8,30.38,SSW,202,0.4,0.4,43,0.00,,CLR,0.00,VWS V14.01,2013-01-22 14:24:00,
2013-01-22 08:25:00,-0.7,-11.8,30.38,SSW,202,0.0,0.4,43,0.00,,CLR,0.00,VWS V14.01,2013-01-22 14:25:00,
2013-01-22 08:26:00,-0.5,-11.8,30.39,SSW,202,0.0,0.0,43,0.00,,CLR,0.00,VWS V14.01,2013-01-22 14:26:00,
2013-01-22 08:28:00,-0.4,-11.8,30.39,North,0,0.0,0.0,43,0.00,,CLR,0.00,VWS V14.01,2013-01-22 14:28:00,
2013-01-22 08:29:00,-0.2,-11.8,30.39,North,0,1.6,1.6,43,0.00,,CLR,0.00,VWS V14.01,2013-01-22 14:29:00,
2013-01-22 08:32:00,-0.2,-11.8,30.39,SSW,202,5.8,8.4,43,0.00,,CLR,0.00,VWS V14.01,2013-01-22 14:32:00,
2013-01-22 08:33:00,-0.2,-11.8,30.39,North,0,1.2,5.8,43,0.00,,CLR,0.00,VWS V14.01,2013-01-22 14:33:00,
2013-01-22 08:37:00,-0.2,-11.8,30.39,North,0,0.0,0.0,43,0.00,,CLR,0.00,VWS V14.01,2013-01-22 14:37:00,
2013-01-22 08:39:00,0.1,-11.8,30.39,North,0,2.2,5.8,43,0.00,,CLR,0.00,VWS V14.01,2013-01-22 14:39:00,
2013-01-22 08:41:00,0.1,-11.8,30.39,SSW,202,4.0,5.2,43,0.00,,CLR,0.00,VWS V14.01,2013-01-22 14:41:00,
2013-01-22 08:42:00,0.1,-11.8,30.39,SSW,202,4.0,5.2,43,0.00,,CLR,0.00,VWS V14.01,2013-01-22 14:42:00,
2013-01-22 08:44:00,0.1,-11.8,30.39,SSW,202,4.0,5.2,43,0.00,,CLR,0.00,VWS V14.01,2013-01-22 14:44:00,
2013-01-22 08:47:00,0.1,-11.8,30.39,North,0,0.0,2.2,42,0.00,,CLR,0.00,VWS V14.01,2013-01-22 14:47:00,
2013-01-22 08:49:00,0.3,-11.8,30.39,SSW,202,2.2,2.2,42,0.00,,CLR,0.00,VWS V14.01,2013-01-22 14:49:00,
2013-01-22 08:50:00,0.5,-11.8,30.39,SW,225,7.6,7.6,42,0.00,,CLR,0.00,VWS V14.01,2013-01-22 14:50:00,
2013-01-22 08:51:00,0.5,-11.8,30.39,SSW,202,6.2,7.6,42,0.00,,CLR,0.00,VWS V14.01,2013-01-22 14:51:00,
2013-01-22 08:56:00,0.3,-11.8,30.39,North,0,4.8,7.6,42,0.00,,CLR,0.00,VWS V14.01,2013-01-22 14:56:00,
2013-01-22 08:57:00,0.1,-11.8,30.39,SW,225,5.8,5.8,42,0.00,,CLR,0.00,VWS V14.01,2013-01-22 14:57:00,
2013-01-22 08:59:00,0.3,-11.8,30.39,North,0,0.0,0.0,42,0.00,,CLR,0.00,VWS V14.01,2013-01-22 14:59:00,
2013-01-22 09:01:00,0.3,-11.8,30.39,SSW,202,5.2,5.2,41,0.00,,CLR,0.00,VWS V14.01,2013-01-22 15:01:00,
2013-01-22 09:02:00,0.5,-11.8,30.39,SW,225,13.8,13.8,41,0.00,,CLR,0.00,VWS V14.01,2013-01-22 15:02:00,
2013-01-22 09:03:00,0.5,-11.8,30.39,SW,225,13.8,13.8,41,0.00,,CLR,0.00,VWS V14.01,2013-01-22 15:03:00,
2013-01-22 09:04:00,0.5,-11.8,30.40,NNW,338,7.0,13.8,42,0.00,,CLR,0.00,VWS V14.01,2013-01-22 15:04:00,
2013-01-22 09:06:00,0.5,-11.8,30.39,NNW,338,3.0,7.0,41,0.00,,CLR,0.00,VWS V14.01,2013-01-22 15:06:00,
2013-01-22 09:08:00,0.5,-11.8,30.39,North,0,0.0,3.0,41,0.00,,CLR,0.00,VWS V14.01,2013-01-22 15:08:00,
2013-01-22 09:10:00,0.6,-11.8,30.39,North,0,6.2,6.2,41,0.00,,CLR,0.00,VWS V14.01,2013-01-22 15:10:00,
2013-01-22 09:13:00,0.8,-11.8,30.39,North,0,0.0,0.0,41,0.00,,CLR,0.00,VWS V14.01,2013-01-22 15:13:00,
2013-01-22 09:14:00,0.8,-11.8,30.39,NNW,338,0.0,0.0,41,0.00,,CLR,0.00,VWS V14.01,2013-01-22 15:14:00,
2013-01-22 09:16:00,1.4,-11.8,30.39,North,0,1.6,4.4,41,0.00,,CLR,0.00,VWS V14.01,2013-01-22 15:16:00,
2013-01-22 09:19:00,1.5,-11.8,30.39,North,0,0.0,0.0,41,0.00,,CLR,0.00,VWS V14.01,2013-01-22 15:19:00,
2013-01-22 09:20:00,1.5,-11.8,30.39,NNW,338,0.0,0.0,41,0.00,,CLR,0.00,VWS V14.01,2013-01-22 15:20:00,
2013-01-22 09:22:00,1.9,-11.8,30.39,NNW,338,0.8,4.8,41,0.00,,CLR,0.00,VWS V14.01,2013-01-22 15:22:00,
2013-01-22 09:24:00,2.3,-11.8,30.39,NNW,338,7.0,7.0,41,0.00,,CLR,0.00,VWS V14.01,2013-01-22 15:24:00,
2013-01-22 09:26:00,2.3,-11.8,30.40,SSW,202,0.0,5.8,41,0.00,,CLR,0.00,VWS V14.01,2013-01-22 15:26:00,
2013-01-22 09:29:00,2.3,-11.8,30.40,SSW,202,5.2,5.2,41,0.00,,CLR,0.00,VWS V14.01,2013-01-22 15:29:00,
2013-01-22 09:30:00,2.4,-11.8,30.40,SW,225,7.0,7.0,41,0.00,,CLR,0.00,VWS V14.01,2013-01-22 15:30:00,
2013-01-22 09:34:00,2.3,-11.8,30.40,SSW,202,8.4,8.4,40,0.00,,CLR,0.00,VWS V14.01,2013-01-22 15:34:00,
2013-01-22 09:35:00,2.3,-11.8,30.40,SW,225,9.8,9.8,40,0.00,,CLR,0.00,VWS V14.01,2013-01-22 15:35:00,
2013-01-22 09:36:00,2.3,-11.8,30.40,SW,225,7.0,7.0,40,0.00,,CLR,0.00,VWS V14.01,2013-01-22 15:36:00,
2013-01-22 09:40:00,2.3,-11.8,30.40,SSW,202,1.6,4.0,40,0.00,,CLR,0.00,VWS V14.01,2013-01-22 15:40:00,
2013-01-22 09:41:00,2.4,-11.8,30.40,SSW,202,3.4,3.4,39,0.00,,CLR,0.00,VWS V14.01,2013-01-22 15:41:00,
2013-01-22 09:42:00,2.6,-11.8,30.40,SSW,202,7.0,7.0,40,0.00,,CLR,0.00,VWS V14.01,2013-01-22 15:42:00,
2013-01-22 09:47:00,2.3,-11.8,30.40,NNW,338,5.2,5.2,39,0.00,,CLR,0.00,VWS V14.01,2013-01-22 15:47:00,
2013-01-22 09:48:00,2.3,-11.8,30.40,SW,225,6.2,6.2,38,0.00,,CLR,0.00,VWS V14.01,2013-01-22 15:48:00,
2013-01-22 09:50:00,2.4,-11.8,30.41,NNW,338,10.6,10.6,38,0.00,,CLR,0.00,VWS V14.01,2013-01-22 15:50:00,
2013-01-22 09:53:00,2.8,-11.8,30.40,NNW,338,7.0,7.0,38,0.00,,CLR,0.00,VWS V14.01,2013-01-22 15:53:00,
2013-01-22 09:54:00,2.8,-11.8,30.40,North,0,0.0,7.0,38,0.00,,CLR,0.00,VWS V14.01,2013-01-22 15:54:00,
2013-01-22 09:57:00,3.2,-11.8,30.40,SW,225,12.0,12.0,38,0.00,,CLR,0.00,VWS V14.01,2013-01-22 15:57:00,
2013-01-22 10:01:00,2.6,-11.8,30.40,SW,225,8.0,8.0,37,0.00,,CLR,0.00,VWS V14.01,2013-01-22 16:01:00,
2013-01-22 10:02:00,2.6,-11.8,30.40,SW,225,11.0,11.0,36,0.00,,CLR,0.00,VWS V14.01,2013-01-22 16:02:00,
2013-01-22 10:05:00,2.6,-11.8,30.40,North,0,0.0,0.0,36,0.00,,CLR,0.00,VWS V14.01,2013-01-22 16:05:00,
2013-01-22 10:07:00,2.8,-11.8,30.40,North,0,4.4,4.4,36,0.00,,CLR,0.00,VWS V14.01,2013-01-22 16:07:00,
2013-01-22 10:09:00,3.3,-11.8,30.40,North,0,5.2,8.0,36,0.00,,CLR,0.00,VWS V14.01,2013-01-22 16:09:00,
2013-01-22 10:12:00,4.1,-11.8,30.40,SSW,202,4.8,6.6,36,0.00,,CLR,0.00,VWS V14.01,2013-01-22 16:12:00,
2013-01-22 10:14:00,4.1,-11.8,30.40,North,0,0.0,0.0,36,0.00,,CLR,0.00,VWS V14.01,2013-01-22 16:14:00,
2013-01-22 10:17:00,4.2,-11.8,30.40,North,0,1.2,7.6,36,0.00,,CLR,0.00,VWS V14.01,2013-01-22 16:17:00,
2013-01-22 10:18:00,4.4,-11.8,30.40,North,0,0.0,7.6,35,0.00,,CLR,0.00,VWS V14.01,2013-01-22 16:18:00,
2013-01-22 10:19:00,4.4,-11.8,30.41,North,0,3.4,3.4,35,0.00,,CLR,0.00,VWS V14.01,2013-01-22 16:19:00,
2013-01-22 10:20:00,4.4,-11.8,30.40,North,0,6.2,6.2,35,0.00,,CLR,0.00,VWS V14.01,2013-01-22 16:20:00,
2013-01-22 10:24:00,4.2,-11.8,30.40,North,0,0.0,4.4,35,0.00,,CLR,0.00,VWS V14.01,2013-01-22 16:24:00,
2013-01-22 10:25:00,4.2,-11.8,30.40,SW,225,7.0,7.0,34,0.00,,CLR,0.00,VWS V14.01,2013-01-22 16:25:00,
2013-01-22 10:26:00,4.4,-11.8,30.40,North,0,4.0,7.0,34,0.00,,CLR,0.00,VWS V14.01,2013-01-22 16:26:00,
2013-01-22 10:29:00,4.6,-11.8,30.40,North,0,0.0,0.0,33,0.00,,CLR,0.00,VWS V14.01,2013-01-22 16:29:00,
2013-01-22 10:32:00,4.1,-11.8,30.40,SW,225,0.0,5.2,30,0.00,,CLR,0.00,VWS V14.01,2013-01-22 16:32:00,
2013-01-22 10:34:00,4.1,-11.8,30.40,North,0,2.6,2.6,30,0.00,,CLR,0.00,VWS V14.01,2013-01-22 16:34:00,
2013-01-22 10:38:00,5.1,-11.8,30.40,NNW,338,0.0,0.0,31,0.00,,CLR,0.00,VWS V14.01,2013-01-22 16:38:00,
2013-01-22 10:39:00,5.3,-11.8,30.40,NNW,338,8.8,8.8,31,0.00,,CLR,0.00,VWS V14.01,2013-01-22 16:39:00,
2013-01-22 10:40:00,5.7,-11.8,30.40,SW,225,5.8,8.8,31,0.00,,CLR,0.00,VWS V14.01,2013-01-22 16:40:00,
2013-01-22 10:44:00,5.7,-11.8,30.40,North,0,4.8,6.2,29,0.00,,CLR,0.00,VWS V14.01,2013-01-22 16:44:00,
2013-01-22 10:45:00,5.9,-11.8,30.40,SW,225,8.4,8.4,30,0.00,,CLR,0.00,VWS V14.01,2013-01-22 16:45:00,
2013-01-22 10:48:00,5.9,-11.8,30.41,SW,225,9.2,9.2,27,0.00,,CLR,0.00,VWS V14.01,2013-01-22 16:48:00,
2013-01-22 10:49:00,6.2,-11.8,30.41,SW,225,5.8,5.8,27,0.00,,CLR,0.00,VWS V14.01,2013-01-22 16:49:00,
2013-01-22 10:50:00,6.2,-11.8,30.41,North,0,4.8,10.2,27,0.00,,CLR,0.00,VWS V14.01,2013-01-22 16:50:00,
2013-01-22 10:54:00,5.7,-11.8,30.41,North,0,10.2,10.2,20,0.00,,CLR,0.00,VWS V14.01,2013-01-22 16:54:00,
2013-01-22 10:58:00,4.4,-11.8,30.41,North,0,7.0,7.0,19,0.00,,CLR,0.00,VWS V14.01,2013-01-22 16:58:00,
2013-01-22 10:59:00,4.4,-11.8,30.40,SSW,202,4.0,7.0,19,0.00,,CLR,0.00,VWS V14.01,2013-01-22 16:59:00,
2013-01-22 11:00:00,4.4,-11.8,30.41,North,0,8.8,8.8,19,0.00,,CLR,0.00,VWS V14.01,2013-01-22 17:00:00,
2013-01-22 11:01:00,4.6,-11.8,30.41,SSW,202,1.6,8.8,19,0.00,,CLR,0.00,VWS V14.01,2013-01-22 17:01:00,
2013-01-22 11:04:00,4.8,-11.8,30.41,SSW,202,9.2,11.0,19,0.00,,CLR,0.00,VWS V14.01,2013-01-22 17:04:00,
2013-01-22 11:05:00,4.4,-11.8,30.41,SW,225,10.6,10.6,19,0.00,,CLR,0.00,VWS V14.01,2013-01-22 17:05:00,
2013-01-22 11:06:00,4.6,-11.8,30.41,SSW,202,5.8,5.8,19,0.00,,CLR,0.00,VWS V14.01,2013-01-22 17:06:00,
2013-01-22 11:09:00,5.1,-11.8,30.41,North,0,7.0,7.0,19,0.00,,CLR,0.00,VWS V14.01,2013-01-22 17:09:00,
2013-01-22 11:10:00,5.0,-11.8,30.41,SSW,202,8.8,8.8,19,0.00,,CLR,0.00,VWS V14.01,2013-01-22 17:10:00,
2013-01-22 11:12:00,5.0,-11.8,30.41,SW,225,6.2,6.2,19,0.00,,CLR,0.00,VWS V14.01,2013-01-22 17:12:00,
2013-01-22 11:13:00,4.8,-11.8,30.40,SSW,202,0.0,6.2,19,0.00,,CLR,0.00,VWS V14.01,2013-01-22 17:13:00,
2013-01-22 11:16:00,5.0,-11.8,30.40,SSW,202,8.4,8.4,19,0.00,,CLR,0.00,VWS V14.01,2013-01-22 17:16:00,
2013-01-22 11:19:00,5.1,-11.8,30.40,North,0,4.4,4.4,19,0.00,,CLR,0.00,VWS V14.01,2013-01-22 17:19:00,
2013-01-22 11:21:00,5.7,-11.8,30.40,SW,225,1.2,1.2,19,0.00,,CLR,0.00,VWS V14.01,2013-01-22 17:21:00,
2013-01-22 11:22:00,5.9,-11.8,30.40,SW,225,8.4,8.4,19,0.00,,CLR,0.00,VWS V14.01,2013-01-22 17:22:00,
2013-01-22 11:24:00,5.9,-11.8,30.40,North,0,0.0,4.4,19,0.00,,CLR,0.00,VWS V14.01,2013-01-22 17:24:00,
2013-01-22 11:27:00,5.9,-11.8,30.40,SSW,202,2.6,2.6,19,0.00,,CLR,0.00,VWS V14.01,2013-01-22 17:27:00,
2013-01-22 11:30:00,5.3,-11.8,30.40,SW,225,7.6,10.2,19,0.00,,CLR,0.00,VWS V14.01,2013-01-22 17:30:00,
2013-01-22 11:31:00,5.3,-11.8,30.40,SW,225,7.6,7.6,19,0.00,,CLR,0.00,VWS V14.01,2013-01-22 17:31:00,
2013-01-22 11:32:00,5.3,-11.8,30.40,North,0,6.6,7.6,19,0.00,,CLR,0.00,VWS V14.01,2013-01-22 17:32:00,
2013-01-22 11:35:00,5.9,-11.8,30.40,SSW,202,8.4,8.4,19,0.00,,CLR,0.00,VWS V14.01,2013-01-22 17:35:00,
2013-01-22 11:37:00,6.6,-11.8,30.40,WNW,292,8.8,8.8,19,0.00,,CLR,0.00,VWS V14.01,2013-01-22 17:37:00,
2013-01-22 11:38:00,6.9,-11.8,30.40,WNW,292,0.0,8.8,19,0.00,,CLR,0.00,VWS V14.01,2013-01-22 17:38:00,
2013-01-22 11:39:00,7.1,-11.8,30.41,NNW,338,9.2,9.2,19,0.00,,CLR,0.00,VWS V14.01,2013-01-22 17:39:00,
2013-01-22 11:42:00,7.7,-11.8,30.40,North,0,11.0,11.0,19,0.00,,BKN026,0.00,VWS V14.01,2013-01-22 17:42:00,
2013-01-22 11:43:00,7.7,-11.8,30.41,NNW,338,5.2,11.0,19,0.00,,BKN026,0.00,VWS V14.01,2013-01-22 17:43:00,
2013-01-22 11:44:00,8.2,-11.8,30.41,West,270,3.4,11.0,19,0.00,,BKN026,0.00,VWS V14.01,2013-01-22 17:44:00,
2013-01-22 11:47:00,8.0,-11.8,30.40,North,0,11.6,14.2,19,0.00,,BKN026,0.00,VWS V14.01,2013-01-22 17:47:00,
2013-01-22 11:50:00,8.6,-11.8,30.40,SW,225,7.6,8.0,19,0.00,,BKN026,0.00,VWS V14.01,2013-01-22 17:50:00,
2013-01-22 11:51:00,8.6,-11.8,30.40,WNW,292,6.2,6.2,19,0.00,,BKN026,0.00,VWS V14.01,2013-01-22 17:51:00,
2013-01-22 11:52:00,8.2,-11.8,30.40,North,0,6.6,6.6,19,0.00,,BKN026,0.00,VWS V14.01,2013-01-22 17:52:00,
2013-01-22 11:56:00,8.7,-11.8,30.39,North,0,0.0,4.8,19,0.00,,BKN026,0.00,VWS V14.01,2013-01-22 17:56:00,
2013-01-22 11:57:00,8.7,-11.8,30.39,SW,225,12.8,12.8,19,0.00,,BKN026,0.00,VWS V14.01,2013-01-22 17:57:00,
2013-01-22 12:00:00,8.2,-11.8,30.39,SW,225,7.6,7.6,19,0.00,,BKN026,0.00,VWS V14.01,2013-01-22 18:00:00,
2013-01-22 12:01:00,7.8,-11.8,30.38,SW,225,7.6,7.6,19,0.00,,BKN026,0.00,VWS V14.01,2013-01-22 18:01:00,
2013-01-22 12:02:00,7.7,-11.8,30.38,SSW,202,17.4,17.4,19,0.00,,BKN026,0.00,VWS V14.01,2013-01-22 18:02:00,
2013-01-22 12:03:00,7.7,-11.8,30.38,West,270,9.2,9.2,19,0.00,,BKN026,0.00,VWS V14.01,2013-01-22 18:03:00,
2013-01-22 12:07:00,7.5,-11.8,30.38,SSW,202,11.0,11.0,19,0.00,,BKN026,0.00,VWS V14.01,2013-01-22 18:07:00,
2013-01-22 12:08:00,6.9,-11.8,30.38,SW,225,11.0,11.0,19,0.00,,BKN026,0.00,VWS V14.01,2013-01-22 18:08:00,
2013-01-22 12:10:00,6.9,-11.8,30.38,West,270,7.0,7.0,19,0.00,,BKN026,0.00,VWS V14.01,2013-01-22 18:10:00,
2013-01-22 12:13:00,8.0,-11.8,30.38,West,270,10.6,18.2,19,0.00,,BKN026,0.00,VWS V14.01,2013-01-22 18:13:00,
2013-01-22 12:14:00,7.8,-11.8,30.38,West,270,8.4,8.4,19,0.00,,BKN026,0.00,VWS V14.01,2013-01-22 18:14:00,
2013-01-22 12:17:00,8.2,-11.8,30.38,SW,225,7.6,7.6,19,0.00,,BKN026,0.00,VWS V14.01,2013-01-22 18:17:00,
2013-01-22 12:20:00,8.2,-11.8,30.38,SSW,202,10.6,10.6,19,0.00,,BKN026,0.00,VWS V14.01,2013-01-22 18:20:00,
2013-01-22 12:21:00,7.7,-11.8,30.37,SSW,202,3.0,3.0,19,0.00,,BKN026,0.00,VWS V14.01,2013-01-22 18:21:00,
2013-01-22 12:24:00,7.7,-11.8,30.37,North,0,4.8,5.8,19,0.00,,BKN026,0.00,VWS V14.01,2013-01-22 18:24:00,
2013-01-22 12:26:00,8.2,-11.8,30.37,SW,225,0.0,8.0,19,0.00,,BKN026,0.00,VWS V14.01,2013-01-22 18:26:00,
2013-01-22 12:28:00,8.6,-11.8,30.36,SSW,202,6.2,6.2,19,0.00,,BKN026,0.00,VWS V14.01,2013-01-22 18:28:00,
2013-01-22 12:31:00,8.7,-11.8,30.37,SW,225,12.4,12.4,19,0.00,,BKN026,0.00,VWS V14.01,2013-01-22 18:31:00,
2013-01-22 12:32:00,8.4,-11.8,30.37,West,270,9.8,12.4,19,0.00,,BKN026,0.00,VWS V14.01,2013-01-22 18:32:00,
2013-01-22 12:34:00,7.8,-11.8,30.37,SW,225,8.0,9.2,19,0.00,,BKN026,0.00,VWS V14.01,2013-01-22 18:34:00,
2013-01-22 12:37:00,8.2,-11.8,30.38,SSW,202,10.2,10.6,19,0.00,,BKN026,0.00,VWS V14.01,2013-01-22 18:37:00,
2013-01-22 12:38:00,8.0,-11.8,30.38,SW,225,8.4,10.6,19,0.00,,BKN026,0.00,VWS V14.01,2013-01-22 18:38:00,
2013-01-22 12:40:00,8.2,-11.8,30.38,West,270,11.6,11.6,19,0.00,,BKN029,0.00,VWS V14.01,2013-01-22 18:40:00,
2013-01-22 12:41:00,8.4,-11.8,30.38,NNW,338,6.6,11.6,19,0.00,,BKN029,0.00,VWS V14.01,2013-01-22 18:41:00,
2013-01-22 12:45:00,8.9,-11.8,30.37,NNW,338,10.2,10.2,19,0.00,,BKN029,0.00,VWS V14.01,2013-01-22 18:45:00,
2013-01-22 12:46:00,9.5,-11.8,30.37,West,270,8.0,10.2,19,0.00,,BKN029,0.00,VWS V14.01,2013-01-22 18:46:00,
2013-01-22 12:48:00,9.5,-11.8,30.37,West,270,10.6,11.6,19,0.00,,BKN029,0.00,VWS V14.01,2013-01-22 18:48:00,
2013-01-22 12:51:00,9.8,-11.8,30.37,WNW,292,14.6,14.6,19,0.00,,BKN029,0.00,VWS V14.01,2013-01-22 18:51:00,
2013-01-22 12:52:00,9.6,-11.8,30.37,West,270,15.6,15.6,19,0.00,,BKN029,0.00,VWS V14.01,2013-01-22 18:52:00,
2013-01-22 12:53:00,9.5,-11.8,30.37,WSW,248,12.0,15.6,19,0.00,,BKN029,0.00,VWS V14.01,2013-01-22 18:53:00,
2013-01-22 12:54:00,9.5,-11.8,30.37,WNW,292,9.8,15.6,19,0.00,,BKN029,0.00,VWS V14.01,2013-01-22 18:54:00,
2013-01-22 12:58:00,9.5,-11.8,30.37,WSW,248,8.8,12.0,19,0.00,,BKN029,0.00,VWS V14.01,2013-01-22 18:58:00,
2013-01-22 13:00:00,9.6,-11.8,30.37,WNW,292,8.0,9.2,19,0.00,,BKN029,0.00,VWS V14.01,2013-01-22 19:00:00,
2013-01-22 13:02:00,9.8,-11.8,30.37,West,270,9.8,15.6,19,0.00,,BKN029,0.00,VWS V14.01,2013-01-22 19:02:00,
2013-01-22 13:06:00,9.6,-11.8,30.36,WSW,248,10.2,10.2,19,0.00,,BKN029,0.00,VWS V14.01,2013-01-22 19:06:00,
2013-01-22 13:08:00,9.6,-11.8,30.37,NNW,338,6.2,17.8,19,0.00,,BKN029,0.00,VWS V14.01,2013-01-22 19:08:00,
2013-01-22 13:12:00,10.0,-11.8,30.37,SW,225,5.8,8.8,19,0.00,,BKN029,0.00,VWS V14.01,2013-01-22 19:12:00,
2013-01-22 13:14:00,10.0,-11.8,30.36,WNW,292,11.0,11.0,19,0.00,,BKN029,0.00,VWS V14.01,2013-01-22 19:14:00,
2013-01-22 13:17:00,10.4,-11.8,30.36,West,270,11.0,11.0,19,0.00,,BKN029,0.00,VWS V14.01,2013-01-22 19:17:00,
2013-01-22 13:18:00,10.0,-11.8,30.36,West,270,8.8,11.0,19,0.00,,BKN029,0.00,VWS V14.01,2013-01-22 19:18:00,
2013-01-22 13:19:00,10.0,-11.8,30.36,WNW,292,13.4,13.4,19,0.00,,BKN029,0.00,VWS V14.01,2013-01-22 19:19:00,
2013-01-22 13:23:00,10.2,-11.8,30.36,WSW,248,8.8,8.8,19,0.00,,BKN029,0.00,VWS V14.01,2013-01-22 19:23:00,
2013-01-22 13:24:00,10.2,-11.8,30.36,NNW,338,5.8,5.8,19,0.00,,BKN029,0.00,VWS V14.01,2013-01-22 19:24:00,
2013-01-22 13:27:00,10.5,-11.8,30.36,WSW,248,14.2,14.2,19,0.00,,BKN029,0.00,VWS V14.01,2013-01-22 19:27:00,
2013-01-22 13:28:00,10.5,-11.8,30.36,West,270,16.4,16.4,19,0.00,,BKN029,0.00,VWS V14.01,2013-01-22 19:28:00,
2013-01-22 13:29:00,10.0,-11.8,30.36,West,270,12.4,16.4,19,0.00,,BKN029,0.00,VWS V14.01,2013-01-22 19:29:00,
2013-01-22 13:31:00,9.3,-11.8,30.36,SW,225,12.4,12.4,19,0.00,,BKN029,0.00,VWS V14.01,2013-01-22 19:31:00,
2013-01-22 13:34:00,9.3,-11.8,30.35,SW,225,11.0,11.6,19,0.00,,BKN029,0.00,VWS V14.01,2013-01-22 19:34:00,
2013-01-22 13:35:00,9.5,-11.8,30.35,West,270,6.2,11.0,19,0.00,,BKN029,0.00,VWS V14.01,2013-01-22 19:35:00,
2013-01-22 13:36:00,9.8,-11.8,30.36,WNW,292,4.4,4.4,19,0.00,,BKN029,0.00,VWS V14.01,2013-01-22 19:36:00,
2013-01-22 13:39:00,10.0,-11.8,30.36,West,270,5.2,7.0,19,0.00,,BKN029,0.00,VWS V14.01,2013-01-22 19:39:00,
2013-01-22 13:40:00,10.4,-11.8,30.36,North,0,7.6,7.6,19,0.00,,SCT032,0.00,VWS V14.01,2013-01-22 19:40:00,
2013-01-22 13:42:00,10.5,-11.8,30.36,West,270,4.0,14.6,19,0.00,,SCT032,0.00,VWS V14.01,2013-01-22 19:42:00,
2013-01-22 13:43:00,10.5,-11.8,30.36,West,270,4.0,4.0,19,0.00,,SCT032,0.00,VWS V14.01,2013-01-22 19:43:00,
2013-01-22 13:46:00,10.5,-11.8,30.36,West,270,5.8,5.8,19,0.00,,SCT032,0.00,VWS V14.01,2013-01-22 19:46:00,
2013-01-22 13:48:00,10.5,-11.8,30.35,SW,225,12.0,23.2,19,0.00,,SCT032,0.00,VWS V14.01,2013-01-22 19:48:00,
2013-01-22 13:52:00,10.2,-11.8,30.35,WSW,248,10.2,10.2,19,0.00,,SCT032,0.00,VWS V14.01,2013-01-22 19:52:00,
2013-01-22 13:54:00,9.8,-11.8,30.34,West,270,6.6,11.6,19,0.00,,SCT032,0.00,VWS V14.01,2013-01-22 19:54:00,
2013-01-22 13:56:00,10.2,-11.8,30.34,West,270,4.4,8.4,19,0.00,,SCT032,0.00,VWS V14.01,2013-01-22 19:56:00,
2013-01-22 13:58:00,10.7,-11.8,30.34,West,270,8.4,8.4,19,0.00,,SCT032,0.00,VWS V14.01,2013-01-22 19:58:00,
2013-01-22 14:00:00,11.1,-11.8,30.35,West,270,4.0,10.2,19,0.00,,SCT032,0.00,VWS V14.01,2013-01-22 20:00:00,
2013-01-22 14:02:00,11.3,-11.8,30.34,West,270,1.6,1.6,19,0.00,,SCT032,0.00,VWS V14.01,2013-01-22 20:02:00,
2013-01-22 14:05:00,10.9,-11.8,30.34,SW,225,15.2,15.2,19,0.00,,SCT032,0.00,VWS V14.01,2013-01-22 20:05:00,
2013-01-22 14:07:00,10.5,-11.8,30.34,West,270,8.8,15.2,19,0.00,,SCT032,0.00,VWS V14.01,2013-01-22 20:07:00,
2013-01-22 14:09:00,10.5,-11.8,30.34,NNW,338,7.6,12.4,19,0.00,,SCT032,0.00,VWS V14.01,2013-01-22 20:09:00,
2013-01-22 14:10:00,10.5,-11.8,30.34,North,0,0.0,0.0,19,0.00,,SCT032,0.00,VWS V14.01,2013-01-22 20:10:00,
2013-01-22 14:11:00,10.5,-11.8,30.34,WNW,292,5.8,5.8,19,0.00,,SCT032,0.00,VWS V14.01,2013-01-22 20:11:00,
2013-01-22 14:14:00,10.9,-11.8,30.34,North,0,0.0,0.0,19,0.00,,SCT032,0.00,VWS V14.01,2013-01-22 20:14:00,
2013-01-22 14:16:00,11.1,-11.8,30.34,NNW,338,9.8,9.8,19,0.00,,SCT032,0.00,VWS V14.01,2013-01-22 20:16:00,
2013-01-22 14:17:00,10.9,-11.8,30.34,SSW,202,4.4,9.8,19,0.00,,SCT032,0.00,VWS V14.01,2013-01-22 20:17:00,
2013-01-22 14:20:00,11.3,-11.8,30.34,North,0,10.2,10.2,19,0.00,,SCT032,0.00,VWS V14.01,2013-01-22 20:20:00,
2013-01-22 14:22:00,11.3,-11.8,30.34,SSW,202,8.0,10.2,19,0.00,,SCT032,0.00,VWS V14.01,2013-01-22 20:22:00,
2013-01-22 14:23:00,11.3,-11.8,30.35,SW,225,8.4,8.4,19,0.00,,SCT032,0.00,VWS V14.01,2013-01-22 20:23:00,
2013-01-22 14:24:00,11.1,-11.8,30.35,North,0,0.0,0.0,19,0.00,,SCT032,0.00,VWS V14.01,2013-01-22 20:24:00,
2013-01-22 14:28:00,10.7,-11.8,30.35,North,0,6.2,7.6,19,0.00,,SCT032,0.00,VWS V14.01,2013-01-22 20:28:00,
2013-01-22 14:29:00,10.5,-11.8,30.35,SSW,202,6.6,6.6,19,0.00,,SCT032,0.00,VWS V14.01,2013-01-22 20:29:00,
2013-01-22 14:31:00,10.5,-11.8,30.35,NNW,338,14.2,14.2,19,0.00,,SCT032,0.00,VWS V14.01,2013-01-22 20:31:00,
2013-01-22 14:32:00,10.5,-11.8,30.35,North,0,7.0,14.2,19,0.00,,SCT032,0.00,VWS V14.01,2013-01-22 20:32:00,
2013-01-22 14:33:00,10.5,-11.8,30.34,North,0,0.0,0.0,19,0.00,,SCT032,0.00,VWS V14.01,2013-01-22 20:33:00,
2013-01-22 14:37:00,10.7,-11.8,30.35,SSW,202,12.0,12.0,19,0.00,,SCT032,0.00,VWS V14.01,2013-01-22 20:37:00,
2013-01-22 14:38:00,10.5,-11.8,30.34,SSW,202,6.2,12.0,19,0.00,,SCT032,0.00,VWS V14.01,2013-01-22 20:38:00,
2013-01-22 14:40:00,10.5,-11.8,30.35,SSW,202,7.6,7.6,19,0.00,,FEW032,0.00,VWS V14.01,2013-01-22 20:40:00,
2013-01-22 14:42:00,10.5,-11.8,30.34,NNW,338,9.2,9.2,19,0.00,,FEW032,0.00,VWS V14.01,2013-01-22 20:42:00,
2013-01-22 14:44:00,10.5,-11.8,30.34,NNW,338,5.8,9.2,19,0.00,,FEW032,0.00,VWS V14.01,2013-01-22 20:44:00,
2013-01-22 14:46:00,10.7,-11.8,30.34,SSW,202,4.8,6.6,19,0.00,,FEW032,0.00,VWS V14.01,2013-01-22 20:46:00,
2013-01-22 14:48:00,10.5,-11.8,30.34,SSW,202,5.8,5.8,19,0.00,,FEW032,0.00,VWS V14.01,2013-01-22 20:48:00,
2013-01-22 14:52:00,10.4,-11.8,30.34,SSW,202,6.2,10.2,19,0.00,,FEW032,0.00,VWS V14.01,2013-01-22 20:52:00,
2013-01-22 14:53:00,10.0,-11.8,30.35,SSW,202,8.8,8.8,19,0.00,,FEW032,0.00,VWS V14.01,2013-01-22 20:53:00,
2013-01-22 14:57:00,9.8,-11.8,30.35,SSW,202,3.4,7.6,19,0.00,,FEW032,0.00,VWS V14.01,2013-01-22 20:57:00,
2013-01-22 14:58:00,9.8,-11.8,30.35,North,0,7.0,7.6,19,0.00,,FEW032,0.00,VWS V14.01,2013-01-22 20:58:00,
2013-01-22 14:59:00,9.8,-11.8,30.34,SW,225,10.6,10.6,19,0.00,,FEW032,0.00,VWS V14.01,2013-01-22 20:59:00,
2013-01-22 15:03:00,10.0,-11.8,30.34,SW,225,0.0,7.0,19,0.00,,FEW032,0.00,VWS V14.01,2013-01-22 21:03:00,
2013-01-22 15:04:00,10.4,-11.8,30.34,SSW,202,1.2,1.2,19,0.00,,FEW032,0.00,VWS V14.01,2013-01-22 21:04:00,
2013-01-22 15:08:00,10.7,-11.8,30.34,North,0,8.0,8.0,19,0.00,,FEW032,0.00,VWS V14.01,2013-01-22 21:08:00,
2013-01-22 15:09:00,10.5,-11.8,30.34,North,0,4.8,8.0,19,0.00,,FEW032,0.00,VWS V14.01,2013-01-22 21:09:00,
2013-01-22 15:10:00,10.7,-11.8,30.34,SSW,202,10.6,10.6,19,0.00,,FEW032,0.00,VWS V14.01,2013-01-22 21:10:00,
2013-01-22 15:13:00,10.5,-11.8,30.34,North,0,7.0,7.0,19,0.00,,FEW032,0.00,VWS V14.01,2013-01-22 21:13:00,
2013-01-22 15:18:00,10.5,-11.8,30.34,SSW,202,5.2,9.2,19,0.00,,FEW032,0.00,VWS V14.01,2013-01-22 21:18:00,
2013-01-22 15:22:00,10.0,-11.8,30.34,North,0,2.6,2.6,19,0.00,,FEW032,0.00,VWS V14.01,2013-01-22 21:22:00,
2013-01-22 15:24:00,10.4,-11.8,30.34,SSW,202,3.0,6.2,19,0.00,,FEW032,0.00,VWS V14.01,2013-01-22 21:24:00,
2013-01-22 15:28:00,10.4,-11.8,30.33,North,0,0.0,4.8,19,0.00,,FEW032,0.00,VWS V14.01,2013-01-22 21:28:00,
2013-01-22 15:29:00,10.5,-11.8,30.33,SW,225,8.0,8.0,19,0.00,,FEW032,0.00,VWS V14.01,2013-01-22 21:29:00,
2013-01-22 15:31:00,10.2,-11.8,30.33,SW,225,4.4,4.4,19,0.00,,FEW032,0.00,VWS V14.01,2013-01-22 21:31:00,
2013-01-22 15:33:00,10.5,-11.8,30.33,SW,225,8.0,8.0,19,0.00,,FEW032,0.00,VWS V14.01,2013-01-22 21:33:00,
2013-01-22 15:34:00,10.4,-11.8,30.33,North,0,10.6,10.6,19,0.00,,FEW032,0.00,VWS V14.01,2013-01-22 21:34:00,
2013-01-22 15:35:00,10.4,-11.8,30.33,North,0,10.6,10.6,19,0.00,,FEW032,0.00,VWS V14.01,2013-01-22 21:35:00,
2013-01-22 15:38:00,10.0,-11.8,30.34,NNW,338,1.6,9.8,19,0.00,,FEW032,0.00,VWS V14.01,2013-01-22 21:38:00,
2013-01-22 15:40:00,10.5,-11.8,30.33,SSW,202,8.0,8.0,19,0.00,,CLR,0.00,VWS V14.01,2013-01-22 21:40:00,
2013-01-22 15:42:00,10.4,-11.8,30.34,NNW,338,8.0,8.0,19,0.00,,CLR,0.00,VWS V14.01,2013-01-22 21:42:00,
2013-01-22 15:45:00,10.2,-11.8,30.33,SW,225,8.8,8.8,19,0.00,,CLR,0.00,VWS V14.01,2013-01-22 21:45:00,
2013-01-22 15:46:00,10.0,-11.8,30.34,SW,225,1.6,1.6,19,0.00,,CLR,0.00,VWS V14.01,2013-01-22 21:46:00,
2013-01-22 15:48:00,10.2,-11.8,30.33,SW,225,8.4,8.4,19,0.00,,CLR,0.00,VWS V14.01,2013-01-22 21:48:00,
2013-01-22 15:50:00,10.0,-11.8,30.34,North,0,8.4,8.4,19,0.00,,CLR,0.00,VWS V14.01,2013-01-22 21:50:00,
2013-01-22 15:52:00,10.0,-11.8,30.34,SSW,202,4.8,4.8,19,0.00,,CLR,0.00,VWS V14.01,2013-01-22 21:52:00,
2013-01-22 15:55:00,10.0,-11.8,30.34,SSW,202,7.0,7.0,19,0.00,,CLR,0.00,VWS V14.01,2013-01-22 21:55:00,
2013-01-22 15:57:00,9.8,-11.8,30.34,SSW,202,4.8,10.6,19,0.00,,CLR,0.00,VWS V14.01,2013-01-22 21:57:00,
2013-01-22 15:59:00,9.8,-11.8,30.34,NNW,338,4.0,6.2,19,0.00,,CLR,0.00,VWS V14.01,2013-01-22 21:59:00,
2013-01-22 16:00:00,10.0,-11.8,30.34,North,0,6.6,6.6,19,0.00,,CLR,0.00,VWS V14.01,2013-01-22 22:00:00,
2013-01-22 16:04:00,9.8,-11.8,30.34,NNW,338,1.6,1.6,19,0.00,,CLR,0.00,VWS V14.01,2013-01-22 22:04:00,
2013-01-22 16:05:00,10.0,-11.8,30.34,North,0,5.8,5.8,19,0.00,,CLR,0.00,VWS V14.01,2013-01-22 22:05:00,
2013-01-22 16:08:00,10.0,-11.8,30.34,SSW,202,4.0,4.0,19,0.00,,CLR,0.00,VWS V14.01,2013-01-22 22:08:00,
2013-01-22 16:10:00,10.0,-11.8,30.34,NNW,338,6.2,6.2,19,0.00,,CLR,0.00,VWS V14.01,2013-01-22 22:10:00,
2013-01-22 16:11:00,10.0,-11.8,30.34,SSW,202,7.0,7.0,19,0.00,,CLR,0.00,VWS V14.01,2013-01-22 22:11:00,
2013-01-22 16:17:00,10.0,-11.8,30.34,North,0,6.6,6.6,19,0.00,,CLR,0.00,VWS V14.01,2013-01-22 22:17:00,
2013-01-22 16:18:00,10.0,-11.8,30.34,SW,225,6.2,6.6,19,0.00,,CLR,0.00,VWS V14.01,2013-01-22 22:18:00,
2013-01-22 16:20:00,10.0,-11.8,30.34,NNW,338,7.0,7.0,19,0.00,,CLR,0.00,VWS V14.01,2013-01-22 22:20:00,
2013-01-22 16:22:00,10.0,-11.8,30.34,North,0,2.6,8.0,19,0.00,,CLR,0.00,VWS V14.01,2013-01-22 22:22:00,
2013-01-22 16:24:00,10.0,-11.8,30.34,SSW,202,0.0,0.0,19,0.00,,CLR,0.00,VWS V14.01,2013-01-22 22:24:00,
2013-01-22 16:25:00,10.0,-11.8,30.34,SSW,202,0.0,0.0,19,0.00,,CLR,0.00,VWS V14.01,2013-01-22 22:25:00,
2013-01-22 16:27:00,10.0,-11.8,30.34,NNW,338,0.0,0.0,19,0.00,,CLR,0.00,VWS V14.01,2013-01-22 22:27:00,
2013-01-22 16:30:00,10.0,-11.8,30.34,North,0,5.2,10.6,19,0.00,,CLR,0.00,VWS V14.01,2013-01-22 22:30:00,
2013-01-22 16:33:00,10.0,-11.8,30.34,SSW,202,8.0,8.0,19,0.00,,CLR,0.00,VWS V14.01,2013-01-22 22:33:00,
2013-01-22 16:35:00,9.8,-11.8,30.33,SSW,202,5.2,5.2,19,0.00,,CLR,0.00,VWS V14.01,2013-01-22 22:35:00,
2013-01-22 16:38:00,9.8,-11.8,30.34,SW,225,11.0,11.0,19,0.00,,CLR,0.00,VWS V14.01,2013-01-22 22:38:00,
2013-01-22 16:40:00,9.8,-11.8,30.34,SSW,202,4.0,4.0,19,0.00,,CLR,0.00,VWS V14.01,2013-01-22 22:40:00,
2013-01-22 16:44:00,9.8,-11.8,30.34,SSW,202,0.0,4.4,19,0.00,,CLR,0.00,VWS V14.01,2013-01-22 22:44:00,
2013-01-22 16:46:00,9.8,-11.8,30.34,North,0,0.0,0.0,19,0.00,,CLR,0.00,VWS V14.01,2013-01-22 22:46:00,
2013-01-22 16:48:00,9.8,-11.8,30.33,SSW,202,2.2,5.2,19,0.00,,CLR,0.00,VWS V14.01,2013-01-22 22:48:00,
2013-01-22 16:52:00,10.0,-11.8,30.33,North,0,4.8,4.8,19,0.00,,CLR,0.00,VWS V14.01,2013-01-22 22:52:00,
2013-01-22 16:53:00,9.8,-11.8,30.33,North,0,2.6,2.6,19,0.00,,CLR,0.00,VWS V14.01,2013-01-22 22:53:00,
2013-01-22 16:58:00,10.0,-11.8,30.33,SSW,202,2.6,7.6,19,0.00,,CLR,0.00,VWS V14.01,2013-01-22 22:58:00,
2013-01-22 17:00:00,9.8,-11.8,30.33,SW,225,6.6,6.6,19,0.00,,CLR,0.00,VWS V14.01,2013-01-22 23:00:00,
2013-01-22 17:03:00,9.8,-11.8,30.33,SSW,202,2.6,2.6,19,0.00,,CLR,0.00,VWS V14.01,2013-01-22 23:03:00,
2013-01-22 17:04:00,9.8,-11.8,30.33,North,0,0.0,2.6,19,0.00,,CLR,0.00,VWS V14.01,2013-01-22 23:04:00,
2013-01-22 17:06:00,9.8,-11.8,30.33,North,0,0.0,0.0,19,0.00,,CLR,0.00,VWS V14.01,2013-01-22 23:06:00,
2013-01-22 17:08:00,9.8,-11.8,30.33,North,0,0.0,0.0,19,0.00,,CLR,0.00,VWS V14.01,2013-01-22 23:08:00,
2013-01-22 17:09:00,9.6,-11.8,30.33,NNW,338,0.0,0.0,19,0.00,,CLR,0.00,VWS V14.01,2013-01-22 23:09:00,
2013-01-22 17:12:00,9.8,-11.8,30.33,SSW,202,0.0,0.0,19,0.00,,CLR,0.00,VWS V14.01,2013-01-22 23:12:00,
2013-01-22 17:14:00,9.8,-11.8,30.33,North,0,0.0,0.0,19,0.00,,CLR,0.00,VWS V14.01,2013-01-22 23:14:00,
2013-01-22 17:15:00,9.8,-11.8,30.33,NNE,22,2.2,2.2,19,0.00,,CLR,0.00,VWS V14.01,2013-01-22 23:15:00,
2013-01-22 17:17:00,9.8,-11.8,30.33,North,0,0.0,0.0,19,0.00,,CLR,0.00,VWS V14.01,2013-01-22 23:17:00,
2013-01-22 17:20:00,9.8,-11.8,30.33,SSW,202,0.0,3.4,19,0.00,,CLR,0.00,VWS V14.01,2013-01-22 23:20:00,
2013-01-22 17:23:00,10.0,-11.8,30.33,North,0,0.0,0.0,19,0.00,,CLR,0.00,VWS V14.01,2013-01-22 23:23:00,
2013-01-22 17:26:00,9.8,-11.8,30.33,North,0,0.0,0.0,19,0.00,,CLR,0.00,VWS V14.01,2013-01-22 23:26:00,
2013-01-22 17:27:00,9.8,-11.8,30.33,North,0,0.0,0.0,19,0.00,,CLR,0.00,VWS V14.01,2013-01-22 23:27:00,
2013-01-22 17:29:00,9.8,-11.8,30.33,North,0,3.0,3.0,19,0.00,,CLR,0.00,VWS V14.01,2013-01-22 23:29:00,
2013-01-22 17:30:00,9.8,-11.8,30.34,NNW,338,6.6,6.6,19,0.00,,CLR,0.00,VWS V14.01,2013-01-22 23:30:00,
2013-01-22 17:32:00,9.8,-11.8,30.34,North,0,0.0,0.0,19,0.00,,CLR,0.00,VWS V14.01,2013-01-22 23:32:00,
2013-01-22 17:34:00,9.8,-11.8,30.33,North,0,0.0,0.0,19,0.00,,CLR,0.00,VWS V14.01,2013-01-22 23:34:00,
2013-01-22 17:35:00,9.8,-11.8,30.33,North,0,0.0,0.0,19,0.00,,CLR,0.00,VWS V14.01,2013-01-22 23:35:00,
2013-01-22 17:38:00,10.0,-11.8,30.33,SSW,202,0.0,0.0,19,0.00,,CLR,0.00,VWS V14.01,2013-01-22 23:38:00,
2013-01-22 17:40:00,10.0,-11.8,30.33,SSW,202,0.0,0.0,19,0.00,,BKN120,0.00,VWS V14.01,2013-01-22 23:40:00,
2013-01-22 17:42:00,10.0,-11.8,30.33,NNW,338,0.4,0.4,19,0.00,,BKN120,0.00,VWS V14.01,2013-01-22 23:42:00,
2013-01-22 17:44:00,9.8,-11.8,30.33,North,0,0.0,0.4,19,0.00,,BKN120,0.00,VWS V14.01,2013-01-22 23:44:00,
2013-01-22 17:45:00,9.8,-11.8,30.33,North,0,0.0,0.0,19,0.00,,BKN120,0.00,VWS V14.01,2013-01-22 23:45:00,
2013-01-22 17:49:00,9.8,-11.8,30.33,SW,225,0.0,0.0,19,0.00,,BKN120,0.00,VWS V14.01,2013-01-22 23:49:00,
2013-01-22 17:50:00,9.8,-11.8,30.33,SW,225,0.0,0.0,19,0.00,,BKN120,0.00,VWS V14.01,2013-01-22 23:50:00,
2013-01-22 17:52:00,9.8,-11.8,30.33,SSW,202,0.0,0.0,19,0.00,,BKN120,0.00,VWS V14.01,2013-01-22 23:52:00,
2013-01-22 17:54:00,9.8,-11.8,30.33,North,0,0.0,0.0,19,0.00,,BKN120,0.00,VWS V14.01,2013-01-22 23:54:00,
2013-01-22 17:57:00,9.8,-11.8,30.33,SW,225,0.0,0.0,19,0.00,,BKN120,0.00,VWS V14.01,2013-01-22 23:57:00,
2013-01-22 18:00:00,9.8,-11.8,30.33,NNW,338,0.0,0.0,19,0.00,,BKN120,0.00,VWS V14.01,2013-01-23 00:00:00,
2013-01-22 18:02:00,10.0,-11.8,30.33,North,0,0.0,0.0,19,0.00,,BKN120,0.00,VWS V14.01,2013-01-23 00:02:00,
2013-01-22 18:04:00,9.8,-11.8,30.33,SSW,202,0.0,0.0,19,0.00,,BKN120,0.00,VWS V14.01,2013-01-23 00:04:00,
2013-01-22 18:05:00,9.8,-11.8,30.33,SSW,202,0.0,0.0,19,0.00,,BKN120,0.00,VWS V14.01,2013-01-23 00:05:00,
2013-01-22 18:08:00,10.0,-11.8,30.32,SSW,202,0.0,0.0,19,0.00,,BKN120,0.00,VWS V14.01,2013-01-23 00:08:00,
2013-01-22 18:09:00,9.8,-11.8,30.32,SSW,202,0.0,0.0,19,0.00,,BKN120,0.00,VWS V14.01,2013-01-23 00:09:00,
2013-01-22 18:12:00,10.0,-11.8,30.33,North,0,4.8,5.8,19,0.00,,OVC110,0.00,VWS V14.01,2013-01-23 00:12:00,
2013-01-22 18:13:00,9.8,-11.8,30.33,NNW,338,0.0,4.8,19,0.00,,OVC110,0.00,VWS V14.01,2013-01-23 00:13:00,
2013-01-22 18:14:00,10.0,-11.8,30.33,NNW,338,0.0,0.0,19,0.00,,OVC110,0.00,VWS V14.01,2013-01-23 00:14:00,
2013-01-22 18:15:00,10.0,-11.8,30.33,North,0,0.0,0.0,19,0.00,,OVC110,0.00,VWS V14.01,2013-01-23 00:15:00,
2013-01-22 18:18:00,10.0,-11.8,30.33,SSW,202,0.0,0.0,19,0.00,,OVC110,0.00,VWS V14.01,2013-01-23 00:18:00,
2013-01-22 18:19:00,9.8,-11.8,30.32,SSW,202,0.0,0.0,19,0.00,,OVC110,0.00,VWS V14.01,2013-01-23 00:19:00,
2013-01-22 18:23:00,9.8,-11.8,30.33,SSW,202,0.0,0.0,19,0.00,,OVC110,0.00,VWS V14.01,2013-01-23 00:23:00,
2013-01-22 18:24:00,9.8,-11.8,30.33,SW,225,8.4,8.4,19,0.00,,OVC110,0.00,VWS V14.01,2013-01-23 00:24:00,
2013-01-22 18:28:00,9.8,-11.8,30.33,SW,225,0.0,0.0,19,0.00,,OVC110,0.00,VWS V14.01,2013-01-23 00:28:00,
2013-01-22 18:30:00,10.0,-11.8,30.33,North,0,0.0,0.0,19,0.00,,OVC110,0.00,VWS V14.01,2013-01-23 00:30:00,
2013-01-22 18:32:00,9.8,-11.8,30.33,North,0,0.0,0.0,19,0.00,,OVC110,0.00,VWS V14.01,2013-01-23 00:32:00,
2013-01-22 18:34:00,10.0,-11.8,30.33,SSW,202,0.0,0.0,19,0.00,,OVC110,0.00,VWS V14.01,2013-01-23 00:34:00,
2013-01-22 18:37:00,10.0,-11.8,30.34,SSW,202,0.0,0.0,19,0.00,,OVC110,0.00,VWS V14.01,2013-01-23 00:37:00,
2013-01-22 18:38:00,10.0,-11.8,30.34,SSW,202,0.0,0.0,19,0.00,,OVC110,0.00,VWS V14.01,2013-01-23 00:38:00,
2013-01-22 18:44:00,10.0,-11.8,30.34,NNW,338,0.0,0.0,19,0.00,,OVC110,0.00,VWS V14.01,2013-01-23 00:44:00,
2013-01-22 18:46:00,10.0,-11.8,30.34,SW,225,0.0,3.0,19,0.00,,OVC110,0.00,VWS V14.01,2013-01-23 00:46:00,
2013-01-22 18:50:00,10.0,-11.8,30.34,SSW,202,4.8,4.8,19,0.00,,OVC110,0.00,VWS V14.01,2013-01-23 00:50:00,
2013-01-22 18:51:00,9.8,-11.8,30.34,SSW,202,3.0,3.0,19,0.00,,OVC110,0.00,VWS V14.01,2013-01-23 00:51:00,
2013-01-22 18:52:00,9.8,-11.8,30.34,SW,225,4.4,4.4,19,0.00,,OVC110,0.00,VWS V14.01,2013-01-23 00:52:00,
2013-01-22 18:53:00,9.8,-11.8,30.34,SW,225,4.4,4.4,19,0.00,,OVC110,0.00,VWS V14.01,2013-01-23 00:53:00,
2013-01-22 18:57:00,9.8,-11.8,30.33,SSW,202,0.0,0.0,19,0.00,,OVC110,0.00,VWS V14.01,2013-01-23 00:57:00,
2013-01-22 18:58:00,9.6,-11.8,30.33,SW,225,0.0,0.0,19,0.00,,OVC110,0.00,VWS V14.01,2013-01-23 00:58:00,
2013-01-22 19:02:00,9.8,-11.8,30.34,SSW,202,0.0,0.0,19,0.00,,OVC110,0.00,VWS V14.01,2013-01-23 01:02:00,
2013-01-22 19:03:00,9.8,-11.8,30.34,North,0,0.0,0.0,19,0.00,,OVC110,0.00,VWS V14.01,2013-01-23 01:03:00,
2013-01-22 19:05:00,9.6,-11.8,30.34,SSW,202,0.0,0.0,19,0.00,,OVC110,0.00,VWS V14.01,2013-01-23 01:05:00,
2013-01-22 19:08:00,9.6,-11.8,30.33,SSW,202,0.0,0.0,19,0.00,,OVC110,0.00,VWS V14.01,2013-01-23 01:08:00,
2013-01-22 19:09:00,9.6,-11.8,30.33,SSW,202,0.0,0.0,19,0.00,,OVC110,0.00,VWS V14.01,2013-01-23 01:09:00,
2013-01-22 19:10:00,9.8,-11.8,30.33,SSW,202,3.0,3.0,19,0.00,,OVC110,0.00,VWS V14.01,2013-01-23 01:10:00,
2013-01-22 19:12:00,9.8,-11.8,30.33,SSW,202,0.0,0.0,19,0.00,,OVC110,0.00,VWS V14.01,2013-01-23 01:12:00,
2013-01-22 19:17:00,9.6,-11.8,30.32,SW,225,0.0,0.0,19,0.00,,OVC110,0.00,VWS V14.01,2013-01-23 01:17:00,
2013-01-22 19:18:00,9.5,-11.8,30.32,SSW,202,0.0,0.0,19,0.00,,OVC110,0.00,VWS V14.01,2013-01-23 01:18:00,
2013-01-22 19:20:00,9.6,-11.8,30.33,SSW,202,7.6,7.6,19,0.00,,OVC110,0.00,VWS V14.01,2013-01-23 01:20:00,
2013-01-22 19:24:00,9.6,-11.8,30.32,SSW,202,0.0,0.0,19,0.00,,OVC110,0.00,VWS V14.01,2013-01-23 01:24:00,
2013-01-22 19:25:00,9.8,-11.8,30.32,SSW,202,0.0,0.0,19,0.00,,OVC110,0.00,VWS V14.01,2013-01-23 01:25:00,
2013-01-22 19:26:00,9.8,-11.8,30.32,SSW,202,0.0,0.0,19,0.00,,OVC110,0.00,VWS V14.01,2013-01-23 01:26:00,
2013-01-22 19:30:00,9.8,-11.8,30.32,SSW,202,0.0,0.0,19,0.00,,OVC110,0.00,VWS V14.01,2013-01-23 01:30:00,
2013-01-22 19:31:00,9.8,-11.8,30.32,SSW,202,0.0,0.0,19,0.00,,OVC110,0.00,VWS V14.01,2013-01-23 01:31:00,
2013-01-22 19:34:00,9.8,-11.8,30.32,North,0,1.6,1.6,19,0.00,,OVC110,0.00,VWS V14.01,2013-01-23 01:34:00,
2013-01-22 19:38:00,9.8,-11.8,30.33,SW,225,0.0,0.0,19,0.00,,OVC110,0.00,VWS V14.01,2013-01-23 01:38:00,
2013-01-22 19:39:00,9.8,-11.8,30.33,SW,225,0.0,0.0,19,0.00,,OVC110,0.00,VWS V14.01,2013-01-23 01:39:00,
2013-01-22 19:40:00,10.0,-11.8,30.32,SSW,202,0.0,0.0,19,0.00,,OVC100,0.00,VWS V14.01,2013-01-23 01:40:00,
2013-01-22 19:44:00,10.0,-11.8,30.32,SSW,202,0.0,0.0,19,0.00,,OVC100,0.00,VWS V14.01,2013-01-23 01:44:00,
2013-01-22 19:45:00,9.8,-11.8,30.32,NNW,338,2.2,2.2,19,0.00,,OVC100,0.00,VWS V14.01,2013-01-23 01:45:00,
2013-01-22 19:47:00,9.8,-11.8,30.32,North,0,3.0,3.0,19,0.00,,OVC100,0.00,VWS V14.01,2013-01-23 01:47:00,
2013-01-22 19:49:00,9.8,-11.8,30.32,North,0,0.0,0.0,19,0.00,,OVC100,0.00,VWS V14.01,2013-01-23 01:49:00,
2013-01-22 19:50:00,9.8,-11.8,30.32,North,0,0.0,0.0,19,0.00,,OVC100,0.00,VWS V14.01,2013-01-23 01:50:00,
2013-01-22 19:54:00,10.0,-11.8,30.32,North,0,2.2,2.2,19,0.00,,OVC100,0.00,VWS V14.01,2013-01-23 01:54:00,
2013-01-22 19:55:00,10.0,-11.8,30.32,North,0,2.2,2.2,19,0.00,,OVC100,0.00,VWS V14.01,2013-01-23 01:55:00,
2013-01-22 19:56:00,10.0,-11.8,30.32,SSW,202,0.0,2.2,19,0.00,,OVC100,0.00,VWS V14.01,2013-01-23 01:56:00,
2013-01-22 19:58:00,10.0,-11.8,30.32,NNW,338,0.0,0.0,19,0.00,,OVC100,0.00,VWS V14.01,2013-01-23 01:58:00,
2013-01-22 20:00:00,10.0,-11.8,30.32,SSW,202,0.0,0.0,19,0.00,,OVC100,0.00,VWS V14.01,2013-01-23 02:00:00,
2013-01-22 20:01:00,10.0,-11.8,30.32,SSW,202,0.0,0.0,19,0.00,,OVC100,0.00,VWS V14.01,2013-01-23 02:01:00,
2013-01-22 20:02:00,10.0,-11.8,30.32,SSW,202,0.0,0.0,19,0.00,,OVC100,0.00,VWS V14.01,2013-01-23 02:02:00,
2013-01-22 20:06:00,10.2,-11.8,30.32,North,0,3.4,3.4,19,0.00,,OVC100,0.00,VWS V14.01,2013-01-23 02:06:00,
2013-01-22 20:07:00,10.2,-11.8,30.32,North,0,3.4,3.4,19,0.00,,OVC100,0.00,VWS V14.01,2013-01-23 02:07:00,
2013-01-22 20:08:00,10.0,-11.8,30.32,SSW,202,0.0,3.4,19,0.00,,OVC100,0.00,VWS V14.01,2013-01-23 02:08:00,
2013-01-22 20:09:00,10.0,-11.8,30.32,SSW,202,0.0,0.0,19,0.00,,OVC100,0.00,VWS V14.01,2013-01-23 02:09:00,
2013-01-22 20:11:00,10.0,-11.8,30.32,SSW,202,0.0,0.0,19,0.00,,OVC100,0.00,VWS V14.01,2013-01-23 02:11:00,
2013-01-22 20:13:00,10.0,-11.8,30.32,SW,225,0.0,0.0,19,0.00,,OVC100,0.00,VWS V14.01,2013-01-23 02:13:00,
2013-01-22 20:15:00,10.0,-11.8,30.32,SSW,202,0.0,0.0,19,0.00,,OVC100,0.00,VWS V14.01,2013-01-23 02:15:00,
2013-01-22 20:17:00,9.8,-11.8,30.32,SW,225,0.0,0.0,19,0.00,,OVC100,0.00,VWS V14.01,2013-01-23 02:17:00,
2013-01-22 20:18:00,10.0,-11.8,30.32,SSW,202,0.0,0.0,19,0.00,,OVC100,0.00,VWS V14.01,2013-01-23 02:18:00,
2013-01-22 20:20:00,9.8,-11.8,30.32,SSW,202,0.0,0.0,19,0.00,,OVC100,0.00,VWS V14.01,2013-01-23 02:20:00,
2013-01-22 20:23:00,10.0,-11.8,30.32,SSW,202,0.0,0.0,19,0.00,,OVC100,0.00,VWS V14.01,2013-01-23 02:23:00,
2013-01-22 20:24:00,10.2,-11.8,30.32,SSW,202,0.0,0.0,19,0.00,,OVC100,0.00,VWS V14.01,2013-01-23 02:24:00,
2013-01-22 20:25:00,10.0,-11.8,30.32,North,0,0.0,0.0,19,0.00,,OVC100,0.00,VWS V14.01,2013-01-23 02:25:00,
2013-01-22 20:28:00,10.4,-11.8,30.33,North,0,2.6,2.6,19,0.00,,OVC100,0.00,VWS V14.01,2013-01-23 02:28:00,
2013-01-22 20:31:00,10.4,-11.8,30.33,SSW,202,0.0,0.0,19,0.00,,OVC100,0.00,VWS V14.01,2013-01-23 02:31:00,
2013-01-22 20:32:00,10.4,-11.8,30.32,SSW,202,0.0,0.0,19,0.00,,OVC100,0.00,VWS V14.01,2013-01-23 02:32:00,
2013-01-22 20:34:00,10.4,-11.8,30.32,North,0,6.2,6.2,19,0.00,,OVC100,0.00,VWS V14.01,2013-01-23 02:34:00,
2013-01-22 20:36:00,10.4,-11.8,30.32,North,0,0.0,0.0,19,0.00,,OVC100,0.00,VWS V14.01,2013-01-23 02:36:00,
2013-01-22 20:37:00,10.4,-11.8,30.32,North,0,0.0,0.0,19,0.00,,OVC100,0.00,VWS V14.01,2013-01-23 02:37:00,
2013-01-22 20:39:00,10.2,-11.8,30.33,SSW,202,0.0,0.0,19,0.00,,OVC100,0.00,VWS V14.01,2013-01-23 02:39:00,
2013-01-22 20:40:00,10.2,-11.8,30.33,North,0,0.0,0.0,19,0.00,,OVC100,0.00,VWS V14.01,2013-01-23 02:40:00,
2013-01-22 20:42:00,10.5,-11.8,30.33,North,0,3.4,3.4,19,0.00,,OVC100,0.00,VWS V14.01,2013-01-23 02:42:00,
2013-01-22 20:48:00,10.5,-11.8,30.33,SSW,202,0.0,2.6,19,0.00,,OVC100,0.00,VWS V14.01,2013-01-23 02:48:00,
2013-01-22 20:52:00,10.4,-11.8,30.33,SW,225,0.0,0.0,19,0.00,,OVC100,0.00,VWS V14.01,2013-01-23 02:52:00,
2013-01-22 20:54:00,10.4,-11.8,30.33,North,0,0.0,0.0,19,0.00,,OVC100,0.00,VWS V14.01,2013-01-23 02:54:00,
2013-01-22 20:57:00,10.5,-11.8,30.34,SSW,202,0.0,0.0,19,0.00,,OVC100,0.00,VWS V14.01,2013-01-23 02:57:00,
2013-01-22 20:58:00,10.4,-11.8,30.34,SSW,202,0.0,0.0,19,0.00,,OVC100,0.00,VWS V14.01,2013-01-23 02:58:00,
2013-01-22 21:00:00,10.5,-11.8,30.34,SSW,202,0.0,0.0,19,0.00,,OVC100,0.00,VWS V14.01,2013-01-23 03:00:00,
2013-01-22 21:02:00,10.5,-11.8,30.34,SSW,202,0.0,0.0,19,0.00,,OVC100,0.00,VWS V14.01,2013-01-23 03:02:00,
2013-01-22 21:04:00,10.4,-11.8,30.34,SSW,202,0.0,0.0,19,0.00,,OVC100,0.00,VWS V14.01,2013-01-23 03:04:00,
2013-01-22 21:06:00,10.4,-11.8,30.34,North,0,0.0,0.0,19,0.00,,OVC100,0.00,VWS V14.01,2013-01-23 03:06:00,
2013-01-22 21:09:00,10.4,-11.8,30.34,SSW,202,0.0,0.0,19,0.00,,OVC100,0.00,VWS V14.01,2013-01-23 03:09:00,
2013-01-22 21:10:00,10.4,-11.8,30.34,SSW,202,0.0,0.0,19,0.00,,OVC100,0.00,VWS V14.01,2013-01-23 03:10:00,
2013-01-22 21:15:00,10.0,-11.8,30.34,SSW,202,2.6,2.6,19,0.00,,OVC100,0.00,VWS V14.01,2013-01-23 03:15:00,
2013-01-22 21:16:00,10.2,-11.8,30.34,SSW,202,0.0,2.6,19,0.00,,OVC100,0.00,VWS V14.01,2013-01-23 03:16:00,
2013-01-22 21:20:00,10.0,-11.8,30.34,SSW,202,0.0,0.0,19,0.00,,OVC100,0.00,VWS V14.01,2013-01-23 03:20:00,
2013-01-22 21:21:00,10.0,-11.8,30.34,SSW,202,0.0,0.0,19,0.00,,OVC100,0.00,VWS V14.01,2013-01-23 03:21:00,
2013-01-22 21:22:00,10.0,-11.8,30.34,SSW,202,0.0,0.0,19,0.00,,OVC100,0.00,VWS V14.01,2013-01-23 03:22:00,
2013-01-22 21:24:00,10.0,-11.8,30.33,SSW,202,0.0,0.0,19,0.00,,OVC100,0.00,VWS V14.01,2013-01-23 03:24:00,
2013-01-22 21:27:00,10.2,-11.8,30.33,SSW,202,0.0,0.0,19,0.00,,OVC100,0.00,VWS V14.01,2013-01-23 03:27:00,
2013-01-22 21:30:00,10.0,-11.8,30.33,North,0,0.0,0.0,19,0.00,,OVC100,0.00,VWS V14.01,2013-01-23 03:30:00,
2013-01-22 21:31:00,10.0,-11.8,30.33,SW,225,0.0,0.0,19,0.00,,OVC100,0.00,VWS V14.01,2013-01-23 03:31:00,
2013-01-22 21:32:00,10.0,-11.8,30.33,SW,225,0.0,0.0,19,0.00,,OVC100,0.00,VWS V14.01,2013-01-23 03:32:00,
2013-01-22 21:35:00,10.0,-11.8,30.32,SSW,202,0.0,0.0,19,0.00,,OVC100,0.00,VWS V14.01,2013-01-23 03:35:00,
2013-01-22 21:37:00,10.0,-11.8,30.32,SW,225,0.0,0.0,19,0.00,,OVC100,0.00,VWS V14.01,2013-01-23 03:37:00,
2013-01-22 21:40:00,10.0,-11.8,30.33,North,0,0.0,0.0,19,0.00,,OVC095,0.00,VWS V14.01,2013-01-23 03:40:00,
2013-01-22 21:42:00,10.0,-11.8,30.33,SSW,202,0.0,0.0,19,0.00,,OVC095,0.00,VWS V14.01,2013-01-23 03:42:00,
2013-01-22 21:47:00,10.2,-11.8,30.33,SSW,202,0.0,0.0,19,0.00,,OVC095,0.00,VWS V14.01,2013-01-23 03:47:00,
2013-01-22 21:48:00,10.0,-11.8,30.33,SSW,202,0.0,0.0,19,0.00,,OVC095,0.00,VWS V14.01,2013-01-23 03:48:00,
2013-01-22 21:51:00,10.4,-11.8,30.33,NNW,338,0.0,0.0,19,0.00,,OVC095,0.00,VWS V14.01,2013-01-23 03:51:00,
2013-01-22 21:52:00,10.2,-11.8,30.33,North,0,0.0,0.0,19,0.00,,OVC095,0.00,VWS V14.01,2013-01-23 03:52:00,
2013-01-22 21:53:00,10.0,-11.8,30.34,SSW,202,0.0,0.0,19,0.00,,OVC095,0.00,VWS V14.01,2013-01-23 03:53:00,
2013-01-22 21:54:00,10.0,-11.8,30.34,SSW,202,0.0,0.0,19,0.00,,OVC095,0.00,VWS V14.01,2013-01-23 03:54:00,
2013-01-22 21:57:00,10.0,-11.8,30.34,SSW,202,0.0,0.0,19,0.00,,OVC095,0.00,VWS V14.01,2013-01-23 03:57:00,
2013-01-22 22:00:00,10.0,-11.8,30.34,SSW,202,0.0,0.0,19,0.00,,OVC095,0.00,VWS V14.01,2013-01-23 04:00:00,
2013-01-22 22:02:00,10.0,-11.8,30.33,SSW,202,2.6,2.6,19,0.00,,OVC095,0.00,VWS V14.01,2013-01-23 04:02:00,
2013-01-22 22:03:00,10.0,-11.8,30.34,SSW,202,0.8,2.6,19,0.00,,OVC095,0.00,VWS V14.01,2013-01-23 04:03:00,
2013-01-22 22:06:00,10.0,-11.8,30.33,SSW,202,0.0,0.0,19,0.00,,OVC095,0.00,VWS V14.01,2013-01-23 04:06:00,
2013-01-22 22:07:00,10.0,-11.8,30.33,SSW,202,0.0,0.0,19,0.00,,OVC095,0.00,VWS V14.01,2013-01-23 04:07:00,
2013-01-22 22:08:00,10.0,-11.8,30.33,SW,225,0.0,0.0,19,0.00,,OVC095,0.00,VWS V14.01,2013-01-23 04:08:00,
2013-01-22 22:11:00,10.2,-11.8,30.33,SSW,202,0.0,0.0,19,0.00,,OVC095,0.00,VWS V14.01,2013-01-23 04:11:00,
2013-01-22 22:13:00,10.2,-11.8,30.33,SSW,202,0.0,0.0,19,0.00,,OVC095,0.00,VWS V14.01,2013-01-23 04:13:00,
2013-01-22 22:14:00,10.0,-11.8,30.33,SSW,202,0.0,0.0,19,0.00,,OVC095,0.00,VWS V14.01,2013-01-23 04:14:00,
2013-01-22 22:15:00,10.0,-11.8,30.33,SSW,202,0.0,0.0,19,0.00,,OVC095,0.00,VWS V14.01,2013-01-23 04:15:00,
2013-01-22 22:19:00,10.0,-11.8,30.33,SSW,202,0.0,0.0,19,0.00,,OVC095,0.00,VWS V14.01,2013-01-23 04:19:00,
2013-01-22 22:20:00,10.0,-11.8,30.33,SW,225,4.8,4.8,19,0.00,,OVC095,0.00,VWS V14.01,2013-01-23 04:20:00,
2013-01-22 22:26:00,10.0,-11.8,30.33,SSW,202,0.0,0.0,19,0.00,,OVC095,0.00,VWS V14.01,2013-01-23 04:26:00,
2013-01-22 22:27:00,10.0,-11.8,30.33,SSW,202,0.0,0.0,19,0.00,,OVC095,0.00,VWS V14.01,2013-01-23 04:27:00,
2013-01-22 22:29:00,10.0,-11.8,30.33,SW,225,0.0,0.0,19,0.00,,OVC095,0.00,VWS V14.01,2013-01-23 04:29:00,
2013-01-22 22:32:00,9.8,-11.8,30.33,SSW,202,0.0,0.0,19,0.00,,OVC095,0.00,VWS V14.01,2013-01-23 04:32:00,
2013-01-22 22:36:00,10.0,-11.8,30.33,SW,225,0.0,3.4,19,0.00,,OVC095,0.00,VWS V14.01,2013-01-23 04:36:00,
2013-01-22 22:38:00,10.0,-11.8,30.33,SW,225,0.0,0.0,19,0.00,,OVC095,0.00,VWS V14.01,2013-01-23 04:38:00,
2013-01-22 22:40:00,10.0,-11.8,30.33,SSW,202,0.0,0.0,19,0.00,,OVC080,0.00,VWS V14.01,2013-01-23 04:40:00,
2013-01-22 22:41:00,10.0,-11.8,30.32,SSW,202,0.0,0.0,19,0.00,,OVC080,0.00,VWS V14.01,2013-01-23 04:41:00,
2013-01-22 22:42:00,9.8,-11.8,30.32,SSW,202,0.0,0.0,19,0.00,,OVC080,0.00,VWS V14.01,2013-01-23 04:42:00,
2013-01-22 22:44:00,10.0,-11.8,30.32,SSW,202,0.0,0.0,19,0.00,,OVC080,0.00,VWS V14.01,2013-01-23 04:44:00,
2013-01-22 22:45:00,10.0,-11.8,30.32,SSW,202,0.0,0.0,19,0.00,,OVC080,0.00,VWS V14.01,2013-01-23 04:45:00,
2013-01-22 22:50:00,9.8,-11.8,30.32,SW,225,0.0,0.0,19,0.00,,OVC080,0.00,VWS V14.01,2013-01-23 04:50:00,
2013-01-22 22:52:00,9.8,-11.8,30.32,SSW,202,0.0,1.6,19,0.00,,OVC080,0.00,VWS V14.01,2013-01-23 04:52:00,
2013-01-22 22:55:00,9.8,-11.8,30.32,SSW,202,0.0,0.0,19,0.00,,OVC080,0.00,VWS V14.01,2013-01-23 04:55:00,
2013-01-22 22:56:00,9.8,-11.8,30.33,SW,225,0.0,0.0,19,0.00,,OVC080,0.00,VWS V14.01,2013-01-23 04:56:00,
2013-01-22 22:57:00,9.8,-11.8,30.33,SSW,202,5.8,5.8,19,0.00,,OVC080,0.00,VWS V14.01,2013-01-23 04:57:00,
2013-01-22 22:58:00,9.8,-11.8,30.33,SW,225,1.6,1.6,19,0.00,,OVC080,0.00,VWS V14.01,2013-01-23 04:58:00,
2013-01-22 23:00:00,9.8,-11.8,30.32,SSW,202,0.0,0.0,19,0.00,,OVC080,0.00,VWS V14.01,2013-01-23 05:00:00,
2013-01-22 23:03:00,9.8,-11.8,30.33,SSW,202,0.0,4.0,19,0.00,,OVC080,0.00,VWS V14.01,2013-01-23 05:03:00,
2013-01-22 23:05:00,9.6,-11.8,30.33,SSW,202,0.0,0.0,19,0.00,,OVC080,0.00,VWS V14.01,2013-01-23 05:05:00,
2013-01-22 23:09:00,9.5,-11.8,30.33,North,0,0.0,0.0,19,0.00,,OVC080,0.00,VWS V14.01,2013-01-23 05:09:00,
2013-01-22 23:10:00,9.6,-11.8,30.33,SSW,202,0.0,0.0,19,0.00,,OVC080,0.00,VWS V14.01,2013-01-23 05:10:00,
2013-01-22 23:11:00,9.6,-11.8,30.33,SSW,202,0.0,0.0,19,0.00,,OVC080,0.00,VWS V14.01,2013-01-23 05:11:00,
2013-01-22 23:12:00,9.6,-11.8,30.33,SSW,202,0.0,0.0,19,0.00,,OVC080,0.00,VWS V14.01,2013-01-23 05:12:00,
2013-01-22 23:16:00,9.5,-11.8,30.33,SSW,202,0.0,0.0,19,0.00,,OVC080,0.00,VWS V14.01,2013-01-23 05:16:00,
2013-01-22 23:18:00,9.5,-11.8,30.32,SSW,202,0.0,0.0,19,0.00,,OVC080,0.00,VWS V14.01,2013-01-23 05:18:00,
2013-01-22 23:22:00,9.5,-11.8,30.32,SSW,202,0.0,0.0,19,0.00,,OVC080,0.00,VWS V14.01,2013-01-23 05:22:00,
2013-01-22 23:23:00,9.5,-11.8,30.32,SSW,202,0.0,0.0,19,0.00,,OVC080,0.00,VWS V14.01,2013-01-23 05:23:00,
2013-01-22 23:25:00,9.5,-11.8,30.33,SSW,202,0.0,0.0,19,0.00,,OVC080,0.00,VWS V14.01,2013-01-23 05:25:00,
2013-01-22 23:26:00,9.5,-11.8,30.33,SSW,202,0.0,0.0,19,0.00,,OVC080,0.00,VWS V14.01,2013-01-23 05:26:00,
2013-01-22 23:30:00,9.5,-11.8,30.32,North,0,0.0,0.0,19,0.00,,OVC080,0.00,VWS V14.01,2013-01-23 05:30:00,
2013-01-22 23:31:00,9.5,-11.8,30.32,North,0,0.0,0.0,19,0.00,,OVC080,0.00,VWS V14.01,2013-01-23 05:31:00,
2013-01-22 23:33:00,9.5,-11.8,30.33,North,0,0.0,0.0,19,0.00,,OVC080,0.00,VWS V14.01,2013-01-23 05:33:00,
2013-01-22 23:34:00,9.5,-11.8,30.33,North,0,0.0,0.0,19,0.00,,OVC080,0.00,VWS V14.01,2013-01-23 05:34:00,
2013-01-22 23:36:00,9.5,-11.8,30.33,SSW,202,0.0,0.0,19,0.00,,OVC080,0.00,VWS V14.01,2013-01-23 05:36:00,
2013-01-22 23:39:00,9.5,-11.8,30.33,SSW,202,0.0,0.0,19,0.00,,OVC080,0.00,VWS V14.01,2013-01-23 05:39:00,
2013-01-22 23:41:00,9.5,-11.8,30.33,SSW,202,0.0,0.0,19,0.00,,OVC075,0.00,VWS V14.01,2013-01-23 05:41:00,
2013-01-22 23:43:00,9.5,-11.8,30.33,SSW,202,0.0,0.0,19,0.00,,OVC075,0.00,VWS V14.01,2013-01-23 05:43:00,
2013-01-22 23:44:00,9.5,-11.8,30.33,SSW,202,0.0,0.0,19,0.00,,OVC075,0.00,VWS V14.01,2013-01-23 05:44:00,
2013-01-22 23:48:00,9.5,-11.8,30.33,SSW,202,0.0,0.0,19,0.00,,OVC075,0.00,VWS V14.01,2013-01-23 05:48:00,
2013-01-22 23:49:00,9.5,-11.8,30.32,SSW,202,0.0,0.0,19,0.00,,OVC075,0.00,VWS V14.01,2013-01-23 05:49:00,
2013-01-22 23:52:00,9.3,-11.8,30.32,North,0,0.0,0.0,19,0.00,,OVC075,0.00,VWS V14.01,2013-01-23 05:52:00,
2013-01-22 23:56:00,9.5,-11.8,30.32,SSW,202,4.4,4.4,19,0.00,,OVC075,0.00,VWS V14.01,2013-01-23 05:56:00,
2013-01-22 23:57:00,9.5,-11.8,30.32,SSW,202,0.0,4.4,19,0.00,,OVC075,0.00,VWS V14.01,2013-01-23 05:57:00,